AF929 / F-GZCG 7700 Squawk Report (25th of September, 2020)

Aircraft A332 Reg No. F-GZCG Age 18 years old
Model A330 Jet engines 2 First flight 19-10-02
Registered 20-12-02 Rollout 10-02 Delivered 19-03-04
Construction No. 498 Line No. N/A Series 203
ADSHEX 396446 Airline name Air France Owner N/A
Airfield based Paris-Charles de Gaulle~Val-d'Oise~F First tracked N/A

Flight history for F-GZCG

Route Flight No Date Playback
???? N/A 2020-10-20 16:03:00
???? N/A 2020-10-16 21:51:00
Cadjehoun (COO) - Charles De Gaulle (CDG) AF805 2020-10-15 05:57:00
Charles De Gaulle (CDG) - Cadjehoun (COO) AF804 2020-10-14 16:29:00
Charles De Gaulle (CDG) - Freetown Lungi (FNA) - Conakry (CKY) - Charles De Gaulle (CDG) AF596 2020-10-14 11:30:00
Charles De Gaulle (CDG) - Freetown Lungi (FNA) - Conakry (CKY) - Charles De Gaulle (CDG) AF596 2020-10-14 05:33:00
Kempegowda International Airport (BLR) - Charles De Gaulle (CDG) AF191 2020-10-13 10:57:00
Charles De Gaulle (CDG) - Kempegowda International Airport (BLR) AF194 2020-10-12 18:42:00
Dubai International (DXB) - Charles De Gaulle (CDG) AF655 2020-10-12 04:05:00
Charles De Gaulle (CDG) - Dubai International (DXB) AF662 2020-10-11 20:54:00
Gnassingbe Eyadema Intl (LFW) - Diori Hamani (NIM) - Charles De Gaulle (CDG) AF339 2020-10-11 09:24:00
Charles De Gaulle (CDG) - Diori Hamani (NIM) - Gnassingbe Eyadema Intl (LFW) AF306 2020-10-10 13:46:00
Charles De Gaulle (CDG) - Conakry (CKY) - Nouakchott (NKC) - Charles De Gaulle (CDG) AF748 2020-10-10 09:06:00
Gnassingbe Eyadema Intl (LFW) - Diori Hamani (NIM) - Charles De Gaulle (CDG) AF339 2020-10-09 14:22:00
Charles De Gaulle (CDG) - Diori Hamani (NIM) - Gnassingbe Eyadema Intl (LFW) AF306 2020-10-08 13:32:00
Charles De Gaulle (CDG) - Conakry (CKY) - Nouakchott (NKC) - Charles De Gaulle (CDG) AF748 2020-10-08 08:52:00
Indira Gandhi Intl (DEL) - Charles De Gaulle (CDG) AF225 2020-10-07 12:36:00
Charles De Gaulle (CDG) - Indira Gandhi Intl (DEL) AF226 2020-10-06 18:46:00
Princess Juliana Intl (SXM) - Charles De Gaulle (CDG) AF499 2020-10-06 08:39:00
Charles De Gaulle (CDG) - Princess Juliana Intl (SXM) AF498 2020-10-05 17:00:00
Time Lat Lon Altitude Heading Speed Vertical Rate
2020-09-25 04:38:23 GMT 49.001335 2.574410 0 14 0 0
2020-09-25 04:38:10 GMT 49.001202 2.574360 0 14 3 0
2020-09-25 04:38:02 GMT 49.001083 2.574304 0 14 5 0
2020-09-25 04:37:56 GMT 49.000946 2.574269 0 14 4 0
2020-09-25 04:37:46 GMT 49.000729 2.574252 0 28 5 0
2020-09-25 04:37:35 GMT 49.000511 2.574180 0 70 7 0
2020-09-25 04:37:26 GMT 49.000431 2.573882 0 84 7 0
2020-09-25 04:37:16 GMT 49.000443 2.573301 0 53 9 0
2020-09-25 04:37:06 GMT 49.000179 2.572843 0 11 10 0
2020-09-25 04:36:56 GMT 48.999790 2.572807 0 47 10 0
2020-09-25 04:36:45 GMT 48.999535 2.572264 0 84 8 0
2020-09-25 04:36:35 GMT 48.999504 2.571628 0 84 13 0
2020-09-25 04:36:25 GMT 48.999454 2.570765 0 87 13 0
2020-09-25 04:36:15 GMT 48.999413 2.569815 0 84 15 0
2020-09-25 04:36:05 GMT 48.999355 2.568723 0 84 16 0
2020-09-25 04:35:55 GMT 48.999298 2.567702 0 87 13 0
2020-09-25 04:35:45 GMT 48.999264 2.566892 0 81 11 0
2020-09-25 04:35:35 GMT 48.999199 2.566211 0 28 10 0
2020-09-25 04:35:25 GMT 48.998882 2.565940 0 334 8 0
2020-09-25 04:35:15 GMT 48.998566 2.566153 0 303 10 0
2020-09-25 04:35:05 GMT 48.998325 2.566807 0 286 11 0
2020-09-25 04:34:54 GMT 48.998161 2.567711 0 286 14 0
2020-09-25 04:34:44 GMT 48.997982 2.568635 0 284 15 0
2020-09-25 04:34:34 GMT 48.997799 2.569692 0 284 15 0
2020-09-25 04:34:15 GMT 48.997410 2.571857 0 286 19 0
2020-09-25 04:33:47 GMT 48.996975 2.576488 0 264 24 0
2020-09-25 04:33:44 GMT 48.996998 2.576890 0 264 24 0
2020-09-25 04:33:31 GMT 48.997128 2.579637 0 264 46 0
2020-09-25 04:33:09 GMT 48.997650 2.589604 700 264 98 0
2020-09-25 04:32:59 GMT 48.998062 2.597210 700 266 119 -192
2020-09-25 04:32:54 GMT 48.998611 2.608267 800 267 120 -640
2020-09-25 04:32:43 GMT 48.998745 2.610482 900 266 120 -576
2020-09-25 04:32:36 GMT 48.999119 2.617059 975 265 120 -704
2020-09-25 04:32:32 GMT 48.999302 2.620022 1,000 265 120 -768
2020-09-25 04:32:25 GMT 48.999664 2.625662 1,125 266 119 -832
2020-09-25 04:32:22 GMT 48.999802 2.628761 1,150 267 120 -704
2020-09-25 04:32:15 GMT 49.000031 2.633972 1,200 266 120 -704
2020-09-25 04:32:12 GMT 49.000187 2.637152 1,225 266 120 -640
2020-09-25 04:32:09 GMT 49.000305 2.639395 1,275 266 122 -704
2020-09-25 04:32:05 GMT 49.000488 2.642705 1,325 265 119 -640
2020-09-25 04:32:01 GMT 49.000698 2.646043 1,400 266 120 -704
2020-09-25 04:31:55 GMT 49.000946 2.651367 1,425 266 122 -576
2020-09-25 04:31:51 GMT 49.001118 2.654282 1,450 267 122 -704
2020-09-25 04:31:48 GMT 49.001266 2.657494 1,500 266 121 -704
2020-09-25 04:31:45 GMT 49.001358 2.659818 1,525 266 120 -576
2020-09-25 04:31:42 GMT 49.001537 2.662667 1,625 265 120 -832
2020-09-25 04:31:33 GMT 49.002003 2.670256 1,675 266 123 -704
2020-09-25 04:31:29 GMT 49.002136 2.673340 1,700 266 123 -576
2020-09-25 04:31:23 GMT 49.002377 2.678929 1,800 266 123 -832
2020-09-25 04:31:20 GMT 49.002514 2.681098 1,850 266 125 -704
2020-09-25 04:31:13 GMT 49.002888 2.688109 1,900 266 124 -640
2020-09-25 04:31:10 GMT 49.002960 2.690031 1,925 266 124 -640
2020-09-25 04:31:05 GMT 49.003189 2.694467 1,975 266 125 -640
2020-09-25 04:31:01 GMT 49.003326 2.697425 2,000 266 124 -640
2020-09-25 04:30:58 GMT 49.003555 2.700876 2,025 265 124 -768
2020-09-25 04:30:55 GMT 49.003677 2.703432 2,125 265 124 -704
2020-09-25 04:30:52 GMT 49.003784 2.705454 2,150 265 123 -576
2020-09-25 04:30:49 GMT 49.003967 2.708412 2,150 266 119 -512
2020-09-25 04:30:45 GMT 49.004150 2.711722 2,250 266 118 -576
2020-09-25 04:30:40 GMT 49.004333 2.715736 2,225 266 118 -704
2020-09-25 04:30:37 GMT 49.004471 2.717849 2,275 266 119 -704
2020-09-25 04:30:33 GMT 49.004700 2.722215 2,350 266 123 -576
2020-09-25 04:30:30 GMT 49.004791 2.723976 2,350 266 124 -576
2020-09-25 04:30:27 GMT 49.004890 2.726561 2,400 266 125 -704
2020-09-25 04:30:23 GMT 49.005074 2.730175 2,450 266 125 -512
2020-09-25 04:30:20 GMT 49.005260 2.733283 2,475 266 124 -448
2020-09-25 04:30:17 GMT 49.005356 2.735596 2,500 266 124 -768
2020-09-25 04:30:14 GMT 49.005524 2.738906 2,550 266 124 -640
2020-09-25 04:30:10 GMT 49.005661 2.741371 2,600 265 124 -704
2020-09-25 04:30:07 GMT 49.005798 2.743906 2,625 266 124 -704
2020-09-25 04:30:03 GMT 49.005981 2.747709 2,675 266 125 -768
2020-09-25 04:30:00 GMT 49.006145 2.750702 2,725 266 126 -640
2020-09-25 04:29:57 GMT 49.006256 2.752991 2,750 266 126 -768
2020-09-25 04:29:54 GMT 49.006439 2.756089 2,800 266 126 -768
2020-09-25 04:29:51 GMT 49.006565 2.758363 2,825 266 128 -576
2020-09-25 04:29:48 GMT 49.006760 2.762005 2,850 266 131 -448
2020-09-25 04:29:43 GMT 49.006943 2.765597 2,875 266 133 -704
2020-09-25 04:29:40 GMT 49.007076 2.768049 2,900 267 134 -704
2020-09-25 04:29:37 GMT 49.007217 2.771157 2,950 266 137 -768
2020-09-25 04:29:34 GMT 49.007355 2.774048 3,000 266 138 -896
2020-09-25 04:29:31 GMT 49.007538 2.777640 3,050 266 142 -896
2020-09-25 04:29:28 GMT 49.007675 2.780104 3,100 266 143 -896
2020-09-25 04:29:24 GMT 49.007870 2.783733 3,125 266 144 -1024
2020-09-25 04:29:20 GMT 49.008148 2.788287 3,225 266 148 -576
2020-09-25 04:29:16 GMT 49.008286 2.792262 3,275 266 143 -960
2020-09-25 04:29:12 GMT 49.008518 2.796382 3,325 266 146 -256
2020-09-25 04:29:09 GMT 49.008705 2.799996 3,350 266 148 -512
2020-09-25 04:29:06 GMT 49.008820 2.802077 3,375 266 149 -640
2020-09-25 04:29:03 GMT 49.009048 2.806584 3,425 266 149 -960
2020-09-25 04:29:00 GMT 49.009171 2.808452 3,475 266 150 -960
2020-09-25 04:28:57 GMT 49.009323 2.812218 3,500 266 149 -832
2020-09-25 04:28:54 GMT 49.009460 2.815176 3,550 266 150 -832
2020-09-25 04:28:50 GMT 49.009689 2.819190 3,625 266 150 -960
2020-09-25 04:28:47 GMT 49.009872 2.822853 3,650 266 150 -704
2020-09-25 04:28:43 GMT 49.010056 2.826016 3,675 266 151 -896
2020-09-25 04:28:40 GMT 49.010242 2.829702 3,725 266 151 -896
2020-09-25 04:28:37 GMT 49.010429 2.833244 3,800 266 151 -1024
2020-09-25 04:28:34 GMT 49.010567 2.836063 3,825 266 151 -832
2020-09-25 04:28:30 GMT 49.010788 2.840318 3,925 266 151 -1024
2020-09-25 04:28:27 GMT 49.010986 2.844158 3,950 266 150 -960
2020-09-25 04:28:24 GMT 49.011082 2.846760 4,000 266 150 -960
2020-09-25 04:28:20 GMT 49.011269 2.850446 4,100 266 150 -896
2020-09-25 04:28:17 GMT 49.011452 2.853988 4,100 266 150 -896
2020-09-25 04:28:13 GMT 49.011658 2.857783 4,150 266 151 -832
2020-09-25 04:28:10 GMT 49.011887 2.861516 4,175 266 151 -832
2020-09-25 04:28:07 GMT 49.012253 2.868629 4,300 266 152 -768
2020-09-25 04:28:03 GMT 49.012253 2.868629 4,300 266 152 -832
2020-09-25 04:28:00 GMT 49.012436 2.872291 4,375 266 152 -832
2020-09-25 04:27:57 GMT 49.012665 2.876305 4,400 266 153 -512
2020-09-25 04:27:53 GMT 49.012802 2.879545 4,425 266 153 -384
2020-09-25 04:27:50 GMT 49.012989 2.882827 4,450 266 156 -256
2020-09-25 04:27:47 GMT 49.013123 2.885883 4,450 266 157 0
2020-09-25 04:27:43 GMT 49.013351 2.890179 4,450 266 161 128
2020-09-25 04:27:40 GMT 49.013535 2.894123 4,450 266 162 0
2020-09-25 04:27:37 GMT 49.013718 2.898419 4,450 266 167 0
2020-09-25 04:27:34 GMT 49.013874 2.901692 4,450 266 169 64
2020-09-25 04:27:30 GMT 49.014061 2.905884 4,425 266 172 64
2020-09-25 04:27:27 GMT 49.014294 2.909642 4,450 265 175 -64
2020-09-25 04:27:23 GMT 49.014587 2.914335 4,450 264 179 -64
2020-09-25 04:27:20 GMT 49.014862 2.918490 4,450 264 181 -128
2020-09-25 04:27:16 GMT 49.015182 2.922434 4,450 263 183 0
2020-09-25 04:27:13 GMT 49.015594 2.926941 4,450 263 185 0
2020-09-25 04:27:10 GMT 49.016014 2.931326 4,450 263 188 64
2020-09-25 04:27:07 GMT 49.016373 2.935533 4,425 262 190 64
2020-09-25 04:27:03 GMT 49.016785 2.939688 4,450 262 193 0
2020-09-25 04:27:00 GMT 49.017365 2.944770 4,425 257 197 128
2020-09-25 04:26:56 GMT 49.018063 2.948962 4,425 256 197 0
2020-09-25 04:26:53 GMT 49.019119 2.953421 4,450 247 200 -256
2020-09-25 04:26:50 GMT 49.020401 2.957646 4,450 243 202 -128
2020-09-25 04:26:47 GMT 49.021786 2.961827 4,450 244 203 128
2020-09-25 04:26:43 GMT 49.023090 2.966092 4,450 250 203 128
2020-09-25 04:26:40 GMT 49.024441 2.975777 4,450 268 203 0
2020-09-25 04:26:36 GMT 49.024441 2.975777 4,450 286 207 -64
2020-09-25 04:26:33 GMT 49.024300 2.980186 4,450 280 205 0
2020-09-25 04:26:29 GMT 49.023422 2.985676 4,450 292 209 -128
2020-09-25 04:26:26 GMT 49.022160 2.989944 4,450 304 212 -64
2020-09-25 04:26:22 GMT 49.020252 2.994280 4,450 310 214 0
2020-09-25 04:26:19 GMT 49.017838 2.997929 4,450 321 218 64
2020-09-25 04:26:16 GMT 49.014713 3.001364 4,450 333 224 -64
2020-09-25 04:26:12 GMT 49.011967 3.003387 4,450 338 227 -128
2020-09-25 04:26:09 GMT 49.008846 3.004905 4,450 343 231 -192
2020-09-25 04:26:06 GMT 49.004974 3.005958 4,475 357 241 -384
2020-09-25 04:26:03 GMT 49.001629 3.006279 4,500 1 245 -576
2020-09-25 04:25:59 GMT 48.997330 3.005958 4,525 6 249 -512
2020-09-25 04:25:56 GMT 48.993439 3.005324 4,575 7 251 -512
2020-09-25 04:25:53 GMT 48.990189 3.004690 4,600 7 252 -512
2020-09-25 04:25:49 GMT 48.985569 3.003821 4,625 7 254 -448
2020-09-25 04:25:45 GMT 48.982040 3.003141 4,650 7 255 -512
2020-09-25 04:25:42 GMT 48.978195 3.002366 4,675 7 256 -512
2020-09-25 04:25:38 GMT 48.972630 3.001219 4,725 7 261 -448
2020-09-25 04:25:35 GMT 48.969772 3.000676 4,725 7 259 -512
2020-09-25 04:25:32 GMT 48.966705 3.000042 4,750 7 261 -448
2020-09-25 04:25:28 GMT 48.959873 2.998689 4,800 7 263 -512
2020-09-25 04:25:25 GMT 48.956223 2.997929 4,825 7 269 -448
2020-09-25 04:25:22 GMT 48.953819 2.997461 4,850 7 265 -576
2020-09-25 04:25:19 GMT 48.950134 2.996803 4,875 7 266 -512
2020-09-25 04:25:15 GMT 48.945145 2.995817 4,900 6 273 -512
2020-09-25 04:25:12 GMT 48.942184 2.995220 4,925 7 270 -512
2020-09-25 04:25:09 GMT 48.937572 2.994353 4,950 6 272 -512
2020-09-25 04:25:06 GMT 48.933838 2.993704 5,000 6 273 -512
2020-09-25 04:25:03 GMT 48.930546 2.993052 5,000 6 273 -512
2020-09-25 04:25:00 GMT 48.926914 2.992401 5,050 6 274 -576
2020-09-25 04:24:57 GMT 48.922623 2.991662 5,050 6 274 -576
2020-09-25 04:24:54 GMT 48.919697 2.991100 5,075 6 275 -448
2020-09-25 04:24:48 GMT 48.910435 2.989438 5,150 6 275 -512
2020-09-25 04:24:44 GMT 48.905365 2.988563 5,175 2 273 -448
2020-09-25 04:24:38 GMT 48.899323 2.987366 5,225 7 275 -512
2020-09-25 04:24:35 GMT 48.894150 2.986380 5,250 7 274 -448
2020-09-25 04:24:29 GMT 48.886738 2.985246 5,275 2 273 -448
2020-09-25 04:24:25 GMT 48.881805 2.984884 5,300 1 273 -448
2020-09-25 04:24:22 GMT 48.878311 2.985183 5,325 355 271 -576
2020-09-25 04:24:19 GMT 48.874695 2.985887 5,350 351 270 -640
2020-09-25 04:24:15 GMT 48.869339 2.988070 5,425 338 264 -384
2020-09-25 04:24:12 GMT 48.866489 2.989727 5,425 338 264 -384
2020-09-25 04:24:09 GMT 48.863510 2.991823 5,450 332 259 0
2020-09-25 04:24:06 GMT 48.860668 2.994208 5,450 330 257 64
2020-09-25 04:24:03 GMT 48.857620 2.997084 5,450 328 256 0
2020-09-25 04:23:59 GMT 48.853180 3.001451 5,450 327 256 64
2020-09-25 04:23:55 GMT 48.849701 3.004902 5,450 328 257 -128
2020-09-25 04:23:52 GMT 48.846474 3.008013 5,450 328 256 -64
2020-09-25 04:23:49 GMT 48.843166 3.011194 5,450 328 258 0
2020-09-25 04:23:42 GMT 48.835625 3.018421 5,450 328 261 -64
2020-09-25 04:23:39 GMT 48.832878 3.021023 5,450 328 260 -64
2020-09-25 04:23:32 GMT 48.825615 3.028107 5,475 328 256 0
2020-09-25 04:23:28 GMT 48.822498 3.031142 5,475 328 255 -64
2020-09-25 04:23:25 GMT 48.819122 3.034410 5,475 328 254 -320
2020-09-25 04:23:22 GMT 48.816055 3.037368 5,475 328 254 -448
2020-09-25 04:23:16 GMT 48.809975 3.043285 5,525 328 255 -448
2020-09-25 04:23:13 GMT 48.807274 3.045887 5,575 328 256 -576
2020-09-25 04:23:10 GMT 48.800995 3.052016 5,600 328 257 -512
2020-09-25 04:23:04 GMT 48.796986 3.055862 5,625 328 257 -512
2020-09-25 04:23:01 GMT 48.794998 3.057791 5,650 328 258 -512
2020-09-25 04:22:58 GMT 48.791958 3.060704 5,675 328 257 -512
2020-09-25 04:22:52 GMT 48.785812 3.066559 5,725 329 258 -512
2020-09-25 04:22:48 GMT 48.781532 3.070534 5,775 329 258 -512
2020-09-25 04:22:41 GMT 48.775406 3.076242 5,825 329 258 -512
2020-09-25 04:22:38 GMT 48.771332 3.080045 5,850 329 258 -512
2020-09-25 04:22:35 GMT 48.768265 3.082894 5,875 329 258 -448
2020-09-25 04:22:32 GMT 48.765423 3.085496 5,900 329 258 -576
2020-09-25 04:22:28 GMT 48.761330 3.089254 5,925 329 259 -448
2020-09-25 04:22:22 GMT 48.755184 3.094964 5,975 329 259 -448
2020-09-25 04:22:19 GMT 48.752197 3.097722 6,025 329 260 -512
2020-09-25 04:22:16 GMT 48.749084 3.100530 6,025 329 261 -448
2020-09-25 04:22:12 GMT 48.744987 3.104360 6,075 329 261 -512
2020-09-25 04:22:09 GMT 48.741776 3.107324 6,100 329 260 -512
2020-09-25 04:22:06 GMT 48.738705 3.110143 6,125 329 261 -512
2020-09-25 04:22:03 GMT 48.734665 3.113849 6,150 329 261 -512
2020-09-25 04:21:59 GMT 48.731396 3.116937 6,175 329 262 -512
2020-09-25 04:21:56 GMT 48.728371 3.119684 6,200 329 262 -512
2020-09-25 04:21:52 GMT 48.724785 3.123008 6,250 329 262 -512
2020-09-25 04:21:49 GMT 48.721153 3.126333 6,275 329 262 -448
2020-09-25 04:21:46 GMT 48.717957 3.129343 6,275 329 261 -512
2020-09-25 04:21:41 GMT 48.713196 3.133709 6,325 329 261 -512
2020-09-25 04:21:38 GMT 48.709579 3.137090 6,350 329 261 -448
2020-09-25 04:21:32 GMT 48.702988 3.143217 6,400 329 262 -512
2020-09-25 04:21:28 GMT 48.699371 3.146597 6,425 329 263 -448
2020-09-25 04:21:25 GMT 48.696991 3.148780 6,450 329 263 -512
2020-09-25 04:21:21 GMT 48.692734 3.152794 6,475 328 264 -448
2020-09-25 04:21:15 GMT 48.685913 3.159274 6,550 328 263 -512
2020-09-25 04:21:11 GMT 48.681770 3.163123 6,575 328 263 -448
2020-09-25 04:21:06 GMT 48.676300 3.168288 6,600 328 264 -448
2020-09-25 04:21:01 GMT 48.667374 3.176669 6,700 329 265 -512
2020-09-25 04:20:58 GMT 48.667374 3.176669 6,700 329 265 -512
2020-09-25 04:20:55 GMT 48.665222 3.178781 6,700 329 265 -512
2020-09-25 04:20:51 GMT 48.661053 3.182638 6,750 329 264 -512
2020-09-25 04:20:45 GMT 48.655235 3.188059 6,775 329 264 -448
2020-09-25 04:20:40 GMT 48.650116 3.192796 6,825 329 265 -512
2020-09-25 04:20:35 GMT 48.644295 3.198250 6,875 329 265 -512
2020-09-25 04:20:30 GMT 48.637127 3.204900 6,925 329 267 -512
2020-09-25 04:20:25 GMT 48.634003 3.207797 6,950 329 266 -576
2020-09-25 04:20:19 GMT 48.626678 3.214698 7,000 329 267 -192
2020-09-25 04:20:15 GMT 48.623611 3.217515 7,000 329 267 -128
2020-09-25 04:20:11 GMT 48.619308 3.221529 7,000 329 265 64
2020-09-25 04:20:06 GMT 48.614643 3.225933 7,000 329 265 64
2020-09-25 04:20:01 GMT 48.608780 3.231389 7,000 329 265 -64
2020-09-25 04:19:56 GMT 48.603973 3.235896 7,000 329 265 0
2020-09-25 04:19:51 GMT 48.598347 3.241111 7,000 329 264 0
2020-09-25 04:19:48 GMT 48.594681 3.244488 7,000 329 265 -64
2020-09-25 04:19:45 GMT 48.592716 3.246388 7,000 329 265 -64
2020-09-25 04:19:39 GMT 48.584335 3.254136 7,000 329 266 -64
2020-09-25 04:19:36 GMT 48.583282 3.255122 7,000 329 266 -64
2020-09-25 04:19:30 GMT 48.576965 3.260897 7,000 329 265 64
2020-09-25 04:19:26 GMT 48.572372 3.265108 7,000 329 265 64
2020-09-25 04:19:21 GMT 48.566692 3.270240 7,000 329 265 -128
2020-09-25 04:19:16 GMT 48.562225 3.274278 7,000 329 267 -64
2020-09-25 04:19:11 GMT 48.555569 3.280359 7,000 329 265 0
2020-09-25 04:19:06 GMT 48.551788 3.283785 7,000 329 265 0
2020-09-25 04:19:00 GMT 48.545013 3.289912 7,000 329 267 128
2020-09-25 04:18:56 GMT 48.540482 3.293997 7,000 329 267 -64
2020-09-25 04:18:50 GMT 48.534012 3.299874 7,000 329 267 -64
2020-09-25 04:18:46 GMT 48.530334 3.303199 7,000 329 267 64
2020-09-25 04:18:40 GMT 48.523636 3.309279 7,000 330 266 64
2020-09-25 04:18:36 GMT 48.519444 3.313101 7,000 330 266 0
2020-09-25 04:18:30 GMT 48.513157 3.318738 7,000 329 265 -64
2020-09-25 04:18:26 GMT 48.509171 3.322378 7,000 329 265 0
2020-09-25 04:18:20 GMT 48.502441 3.328435 7,025 329 265 -64
2020-09-25 04:18:16 GMT 48.498260 3.332255 7,025 329 265 -64
2020-09-25 04:18:09 GMT 48.491409 3.338435 7,025 329 265 -384
2020-09-25 04:18:06 GMT 48.488068 3.341506 7,050 329 265 -512
2020-09-25 04:17:58 GMT 48.479370 3.349422 7,125 329 264 -448
2020-09-25 04:17:55 GMT 48.476440 3.352098 7,150 329 264 -512
2020-09-25 04:17:49 GMT 48.469940 3.358013 7,200 329 264 -512
2020-09-25 04:17:46 GMT 48.466793 3.360877 7,225 329 265 -512
2020-09-25 04:17:39 GMT 48.459484 3.367671 7,300 329 265 -576
2020-09-25 04:17:36 GMT 48.456299 3.370549 7,325 329 264 -640
2020-09-25 04:17:29 GMT 48.449203 3.377028 7,375 329 264 -384
2020-09-25 04:17:26 GMT 48.445770 3.380127 7,400 330 264 -448
2020-09-25 04:17:19 GMT 48.438488 3.386680 7,475 330 265 -512
2020-09-25 04:17:16 GMT 48.435230 3.389571 7,475 330 265 -512
2020-09-25 04:17:08 GMT 48.427643 3.396293 7,550 330 264 -512
2020-09-25 04:17:05 GMT 48.424255 3.399283 7,575 330 264 -512
2020-09-25 04:16:59 GMT 48.417297 3.405480 7,625 330 264 -448
2020-09-25 04:16:56 GMT 48.413177 3.409072 7,650 330 265 -512
2020-09-25 04:16:47 GMT 48.405258 3.416185 7,700 330 268 -448
2020-09-25 04:16:38 GMT 48.394501 3.425903 7,800 330 266 -512
2020-09-25 04:16:27 GMT 48.383835 3.435411 7,900 330 264 -384
2020-09-25 04:16:18 GMT 48.374386 3.443780 7,950 330 264 -512
2020-09-25 04:16:08 GMT 48.363491 3.453466 8,000 330 265 128
2020-09-25 04:15:56 GMT 48.351200 3.464380 8,000 330 266 0
2020-09-25 04:15:47 GMT 48.342079 3.472475 8,000 330 268 -128
2020-09-25 04:15:37 GMT 48.331093 3.482232 8,000 330 267 128
2020-09-25 04:15:26 GMT 48.319641 3.492496 8,000 330 264 0
2020-09-25 04:15:17 GMT 48.309631 3.501458 8,000 329 265 128
2020-09-25 04:15:07 GMT 48.299389 3.510638 8,000 330 269 -128
2020-09-25 04:14:54 GMT 48.285553 3.523090 8,000 330 271 0
2020-09-25 04:14:46 GMT 48.276997 3.530731 8,000 330 272 -64
2020-09-25 04:14:36 GMT 48.266144 3.540485 8,000 330 272 -64
2020-09-25 04:14:26 GMT 48.255398 3.550102 8,000 330 269 64
2020-09-25 04:14:16 GMT 48.244785 3.559498 8,000 330 269 64
2020-09-25 04:14:07 GMT 48.233826 3.569219 8,000 330 270 -128
2020-09-25 04:13:55 GMT 48.222290 3.579360 8,000 330 270 64
2020-09-25 04:13:46 GMT 48.212059 3.588337 8,000 330 270 0
2020-09-25 04:13:36 GMT 48.200821 3.598163 8,000 330 271 -64
2020-09-25 04:13:25 GMT 48.189743 3.607952 8,000 330 270 0
2020-09-25 04:13:15 GMT 48.178589 3.617827 8,000 330 268 -64
2020-09-25 04:13:06 GMT 48.168579 3.626645 8,000 330 267 0
2020-09-25 04:12:55 GMT 48.157379 3.636475 8,000 330 266 0
2020-09-25 04:12:46 GMT 48.146233 3.646334 8,000 330 267 0
2020-09-25 04:12:35 GMT 48.136139 3.655289 8,000 330 268 -64
2020-09-25 04:12:25 GMT 48.125381 3.664902 8,000 330 266 64
2020-09-25 04:12:20 GMT 48.120621 3.669090 8,000 330 266 64
2020-09-25 04:12:15 GMT 48.114765 3.674293 8,000 330 269 0
2020-09-25 04:12:04 GMT 48.103180 3.684608 8,000 329 269 -192
2020-09-25 04:11:54 GMT 48.092419 3.694223 8,000 330 269 128
2020-09-25 04:11:42 GMT 48.079430 3.705703 8,000 330 270 -128
2020-09-25 04:11:32 GMT 48.068893 3.715027 8,000 330 268 0
2020-09-25 04:11:22 GMT 48.058109 3.724577 8,000 330 268 0
2020-09-25 04:11:12 GMT 48.047012 3.734390 8,000 330 269 -64
2020-09-25 04:11:02 GMT 48.036324 3.743943 8,000 330 269 0
2020-09-25 04:10:50 GMT 48.023708 3.755141 8,000 330 268 0
2020-09-25 04:10:41 GMT 48.014694 3.763092 8,000 330 270 0
2020-09-25 04:10:34 GMT 48.006157 3.770564 8,000 330 272 0
2020-09-25 04:10:31 GMT 48.003571 3.772842 8,000 330 272 0
2020-09-25 04:10:21 GMT 47.992813 3.782387 8,000 330 273 0
2020-09-25 04:10:14 GMT 47.984043 3.790072 8,000 330 270 0
2020-09-25 04:10:10 GMT 47.980694 3.793030 8,000 330 270 0
2020-09-25 04:10:01 GMT 47.970451 3.802115 8,000 330 270 64
2020-09-25 04:09:53 GMT 47.962372 3.809235 8,000 330 270 0
2020-09-25 04:09:50 GMT 47.959652 3.811622 8,000 330 271 0
2020-09-25 04:09:43 GMT 47.951180 3.819087 8,000 330 268 64
2020-09-25 04:09:40 GMT 47.948639 3.821388 8,000 330 268 0
2020-09-25 04:09:30 GMT 47.937424 3.831276 8,000 330 268 0
2020-09-25 04:09:20 GMT 47.926620 3.840820 8,025 330 267 -256
2020-09-25 04:09:10 GMT 47.916031 3.850215 8,050 330 265 -512
2020-09-25 04:09:02 GMT 47.907841 3.857398 8,150 330 268 -1152
2020-09-25 04:08:59 GMT 47.904953 3.859934 8,200 330 269 -1152
2020-09-25 04:08:52 GMT 47.897415 3.866570 8,350 330 270 -1472
2020-09-25 04:08:49 GMT 47.894073 3.869453 8,450 330 270 -1600
2020-09-25 04:08:39 GMT 47.882904 3.879341 8,700 330 270 -1472
2020-09-25 04:08:32 GMT 47.875206 3.886061 8,875 330 273 -1280
2020-09-25 04:08:29 GMT 47.871964 3.888885 8,950 330 273 -1280
2020-09-25 04:08:22 GMT 47.864685 3.895287 9,100 330 273 -1408
2020-09-25 04:08:18 GMT 47.860794 3.898773 9,175 330 273 -1600
2020-09-25 04:08:12 GMT 47.853512 3.905217 9,350 330 274 -1472
2020-09-25 04:08:07 GMT 47.849045 3.909161 9,450 330 274 -1536
2020-09-25 04:08:01 GMT 47.842247 3.915077 9,625 330 275 -1472
2020-09-25 04:07:58 GMT 47.838501 3.918343 9,700 330 276 -1408
2020-09-25 04:07:51 GMT 47.830467 3.925359 9,875 330 276 -1280
2020-09-25 04:07:48 GMT 47.827255 3.928176 9,925 330 278 -1088
2020-09-25 04:07:42 GMT 47.819778 3.934685 10,025 330 281 -832
2020-09-25 04:07:37 GMT 47.815796 3.938118 10,075 330 285 -640
2020-09-25 04:07:31 GMT 47.808151 3.944778 10,150 330 288 -576
2020-09-25 04:07:27 GMT 47.803665 3.948692 10,200 330 292 -640
2020-09-25 04:07:20 GMT 47.795883 3.955421 10,275 330 296 -640
2020-09-25 04:07:17 GMT 47.791992 3.958855 10,300 330 299 -576
2020-09-25 04:07:11 GMT 47.784256 3.965515 10,350 331 305 -640
2020-09-25 04:07:07 GMT 47.779076 3.969515 10,425 336 312 -1088
2020-09-25 04:06:56 GMT 47.765247 3.976840 10,700 347 319 -1664
2020-09-25 04:06:51 GMT 47.756729 3.979727 10,850 349 322 -1344
2020-09-25 04:06:46 GMT 47.749981 3.981840 10,950 349 324 -1152
2020-09-25 04:06:40 GMT 47.741592 3.984398 11,025 349 329 -704
2020-09-25 04:06:36 GMT 47.734989 3.986417 11,075 349 331 -640
2020-09-25 04:06:30 GMT 47.725914 3.989234 11,150 349 339 -768
2020-09-25 04:06:25 GMT 47.717972 3.991676 11,225 349 341 -704
2020-09-25 04:06:17 GMT 47.704376 3.995796 11,325 349 346 -704
2020-09-25 04:06:14 GMT 47.701843 3.996629 11,325 349 350 -704
2020-09-25 04:06:10 GMT 47.694958 3.998671 11,375 349 356 -704
2020-09-25 04:06:04 GMT 47.685059 4.001701 11,450 349 361 -832
2020-09-25 04:06:00 GMT 47.678196 4.003812 11,525 349 364 -1600
2020-09-25 04:05:54 GMT 47.668934 4.006700 11,700 349 366 -2496
2020-09-25 04:05:50 GMT 47.661987 4.008842 11,900 349 364 -3584
2020-09-25 04:05:43 GMT 47.651291 4.012193 12,375 349 358 -4672
2020-09-25 04:05:40 GMT 47.645142 4.014130 12,675 348 351 -5248
2020-09-25 04:05:34 GMT 47.635757 4.017082 13,200 348 348 -5824
2020-09-25 04:05:27 GMT 47.624943 4.020503 13,875 349 343 -5824
2020-09-25 04:05:23 GMT 47.619644 4.022163 14,225 349 343 -5824
2020-09-25 04:05:17 GMT 47.610184 4.025081 14,800 349 341 -5568
2020-09-25 04:05:13 GMT 47.603394 4.027176 15,200 349 340 -4928
2020-09-25 04:05:10 GMT 47.597717 4.028961 15,475 349 340 -4160
2020-09-25 04:05:03 GMT 47.587784 4.031982 15,850 349 343 -3456
2020-09-25 04:04:59 GMT 47.581558 4.033905 16,075 349 346 -3520
2020-09-25 04:04:53 GMT 47.571686 4.036983 16,475 349 348 -3968
2020-09-25 04:04:49 GMT 47.565994 4.038780 16,725 349 349 -4160
2020-09-25 04:04:42 GMT 47.555191 4.042076 17,200 349 351 -4224
2020-09-25 04:04:39 GMT 47.550735 4.043462 17,475 349 351 -4352
2020-09-25 04:04:36 GMT 47.545670 4.045029 17,625 349 352 -4480
2020-09-25 04:04:32 GMT 47.539124 4.047020 17,925 349 352 -4416
2020-09-25 04:04:27 GMT 47.530067 4.049870 18,350 349 353 -4288
2020-09-25 04:04:22 GMT 47.522526 4.052194 18,675 349 354 -4224
2020-09-25 04:04:19 GMT 47.517700 4.053680 18,900 349 355 -4096
2020-09-25 04:04:16 GMT 47.513077 4.055122 19,075 349 356 -4032
2020-09-25 04:04:11 GMT 47.505936 4.057320 19,375 349 357 -4032
2020-09-25 04:04:07 GMT 47.497330 4.059998 19,725 349 360 -4032
2020-09-25 04:04:01 GMT 47.489960 4.062263 20,025 349 362 -4096
2020-09-25 04:03:56 GMT 47.481281 4.064941 20,375 349 364 -4096
2020-09-25 04:03:52 GMT 47.474812 4.066913 20,650 349 365 -4032
2020-09-25 04:03:49 GMT 47.468014 4.069026 20,900 349 368 -3840
2020-09-25 04:03:46 GMT 47.464848 4.070012 21,375 349 373 -3520
2020-09-25 04:03:40 GMT 47.454895 4.073044 21,250 349 372 -3584
2020-09-25 04:03:36 GMT 47.438545 4.078040 23,625 349 383 -4608
2020-09-25 04:03:31 GMT 47.438545 4.078040 21,975 349 379 -4224
2020-09-25 04:03:26 GMT 47.430119 4.080646 22,325 349 381 -4416
2020-09-25 04:03:21 GMT 47.420811 4.083534 22,725 349 382 -4480
2020-09-25 04:03:18 GMT 47.415619 4.085129 22,950 349 382 -4608
2020-09-25 04:03:15 GMT 47.411453 4.086433 23,150 349 383 -4672
2020-09-25 04:03:11 GMT 47.398499 4.090485 23,550 349 383 -4672
2020-09-25 04:03:08 GMT 47.398499 4.090485 23,725 349 383 -4544
2020-09-25 04:03:05 GMT 47.394287 4.091789 23,925 349 384 -4416
2020-09-25 04:03:00 GMT 47.384903 4.094673 24,300 349 386 -3776
2020-09-25 04:02:55 GMT 47.376160 4.097351 24,725 349 390 -2944
2020-09-25 04:02:51 GMT 47.368149 4.099754 24,700 349 394 -2624
2020-09-25 04:02:47 GMT 47.359875 4.102267 24,950 349 401 -2304
2020-09-25 04:02:43 GMT 47.353680 4.104168 25,075 349 406 -2432
2020-09-25 04:02:40 GMT 47.348469 4.105718 25,175 349 411 -2688
2020-09-25 04:02:35 GMT 47.340271 4.108269 25,425 349 415 -3456
2020-09-25 04:02:32 GMT 47.329147 4.111633 25,700 349 417 -4160
2020-09-25 04:02:29 GMT 47.321747 4.113957 25,925 349 419 -4160
2020-09-25 04:02:26 GMT 47.321747 4.113957 26,050 349 420 -3968
2020-09-25 04:02:23 GMT 47.316628 4.115507 26,125 349 421 -3840
2020-09-25 04:02:19 GMT 47.309921 4.117549 26,425 349 425 -3264
2020-09-25 04:02:16 GMT 47.303123 4.119591 26,600 349 429 -2944
2020-09-25 04:02:13 GMT 47.297287 4.121315 26,800 349 434 -2880
2020-09-25 04:02:10 GMT 47.292187 4.122901 26,900 349 437 -2944
2020-09-25 04:02:07 GMT 47.285889 4.124817 28,825 349 439 -3136
2020-09-25 04:02:03 GMT 47.277523 4.127409 27,250 349 442 -3840
2020-09-25 04:01:59 GMT 47.269501 4.129898 27,500 349 444 -4288
2020-09-25 04:01:55 GMT 47.261444 4.132370 27,825 349 445 -4928
2020-09-25 04:01:51 GMT 47.253983 4.134636 28,250 349 445 -5440
2020-09-25 04:01:48 GMT 47.248753 4.136282 28,675 349 445 -5440
2020-09-25 04:01:44 GMT 47.240887 4.138677 28,725 349 446 -4800
2020-09-25 04:01:41 GMT 47.233391 4.140930 28,925 349 447 -4416
2020-09-25 04:01:38 GMT 47.226688 4.142973 29,275 349 451 -3648
2020-09-25 04:01:35 GMT 47.221207 4.144592 29,400 349 452 -3648
2020-09-25 04:01:30 GMT 47.210495 4.147888 29,750 349 457 -3712
2020-09-25 04:01:27 GMT 47.204296 4.149804 29,900 349 459 -3712
2020-09-25 04:01:24 GMT 47.199081 4.151353 30,075 349 461 -3776
2020-09-25 04:01:20 GMT 47.187584 4.154874 30,425 349 466 -3712
2020-09-25 04:01:17 GMT 47.182068 4.156540 30,575 349 468 -3776
2020-09-25 04:01:14 GMT 47.178040 4.157776 30,700 349 470 -3904
2020-09-25 04:01:10 GMT 47.169521 4.160297 31,025 349 473 -4096
2020-09-25 04:01:07 GMT 47.163071 4.162239 31,150 349 474 -4224
2020-09-25 04:01:04 GMT 47.156845 4.164093 31,850 349 479 -4864
2020-09-25 04:01:01 GMT 47.149082 4.166495 31,700 349 478 -4672
2020-09-25 04:00:57 GMT 47.141960 4.168678 33,075 349 483 -4608
2020-09-25 04:00:54 GMT 47.131989 4.171715 32,325 349 480 -4928
2020-09-25 04:00:50 GMT 47.123932 4.174118 32,775 349 482 -4800
2020-09-25 04:00:47 GMT 47.119812 4.175423 32,775 349 481 -4800
2020-09-25 04:00:44 GMT 47.113037 4.177414 35,200 349 491 -2304
2020-09-25 04:00:41 GMT 47.105556 4.179664 33,300 349 484 -4608
2020-09-25 04:00:38 GMT 47.099854 4.181396 33,500 349 485 -4736
2020-09-25 04:00:35 GMT 47.091965 4.183749 33,775 349 486 -4608
2020-09-25 04:00:32 GMT 47.085342 4.185791 34,100 349 490 -4096
2020-09-25 04:00:29 GMT 47.079117 4.187645 34,200 349 490 -3840
2020-09-25 04:00:25 GMT 47.069572 4.190510 35,200 349 492 -2944
2020-09-25 04:00:22 GMT 47.065338 4.191833 34,600 349 492 -2816
2020-09-25 04:00:19 GMT 47.056866 4.194383 34,725 349 492 -2496
2020-09-25 04:00:16 GMT 47.051514 4.195953 34,850 349 492 -2368
2020-09-25 04:00:13 GMT 47.043968 4.198256 34,950 349 492 -2368
2020-09-25 04:00:10 GMT 47.037277 4.200279 35,125 349 492 -2304
2020-09-25 04:00:06 GMT 47.029037 4.202751 35,275 349 488 -2368
2020-09-25 04:00:03 GMT 47.022125 4.204880 35,350 349 492 -2304
2020-09-25 04:00:00 GMT 47.015480 4.206848 35,525 349 491 -2432
2020-09-25 03:59:56 GMT 47.005005 4.210017 35,675 349 490 -2496
2020-09-25 03:59:52 GMT 46.995483 4.212845 35,775 349 490 -2496
2020-09-25 03:59:48 GMT 46.985962 4.215729 35,975 349 489 -2368
2020-09-25 03:59:44 GMT 46.978889 4.217905 36,100 349 488 -2368
2020-09-25 03:59:41 GMT 46.973351 4.219525 36,275 349 488 -2368
2020-09-25 03:59:38 GMT 46.966972 4.221497 36,325 349 488 -2368
2020-09-25 03:59:34 GMT 46.957260 4.224449 36,575 349 487 -2240
2020-09-25 03:59:31 GMT 46.949982 4.226646 36,625 349 487 -2176
2020-09-25 03:59:28 GMT 46.943371 4.228680 36,625 349 487 -2176
2020-09-25 03:59:24 GMT 46.934803 4.231215 36,775 349 486 -2048
2020-09-25 03:59:21 GMT 46.928192 4.233238 36,950 349 485 -1856
2020-09-25 03:59:18 GMT 46.921829 4.235161 37,050 349 485 -1600
2020-09-25 03:59:14 GMT 46.912182 4.238117 37,150 349 485 -1216
2020-09-25 03:59:10 GMT 46.905579 4.240105 37,175 349 485 -1088
2020-09-25 03:59:07 GMT 46.899006 4.242061 37,225 349 485 -960
2020-09-25 03:59:04 GMT 46.892208 4.244103 37,400 349 485 -1024
2020-09-25 03:59:01 GMT 46.884293 4.246559 37,350 349 485 -960
2020-09-25 03:58:58 GMT 46.876846 4.248751 37,425 349 485 -960
2020-09-25 03:58:54 GMT 46.860809 4.253585 37,525 349 485 -960
2020-09-25 03:58:51 GMT 46.860809 4.253585 37,525 349 485 -960
2020-09-25 03:58:47 GMT 46.851837 4.256264 37,600 349 483 -1024
2020-09-25 03:58:43 GMT 46.844398 4.258507 37,625 349 483 -1024
2020-09-25 03:58:39 GMT 46.836960 4.260686 37,725 349 483 -960
2020-09-25 03:58:36 GMT 46.830597 4.262561 37,725 349 483 -960
2020-09-25 03:58:32 GMT 46.820938 4.265442 37,800 349 485 -64
2020-09-25 03:58:29 GMT 46.815025 4.267227 37,825 349 484 -960
2020-09-25 03:58:26 GMT 46.808228 4.269287 37,875 349 484 -960
2020-09-25 03:58:22 GMT 46.799709 4.271828 37,950 349 484 -896
2020-09-25 03:58:19 GMT 46.793106 4.273816 38,000 349 484 -128
2020-09-25 03:58:16 GMT 46.786533 4.275810 38,000 349 484 0
2020-09-25 03:58:13 GMT 46.778687 4.278170 38,000 349 484 0
2020-09-25 03:58:10 GMT 46.773193 4.279845 38,000 349 484 0
2020-09-25 03:58:07 GMT 46.766609 4.281784 38,000 349 484 0
2020-09-25 03:58:03 GMT 46.757629 4.284467 38,000 349 483 0
2020-09-25 03:58:00 GMT 46.751060 4.286453 38,000 349 484 0
2020-09-25 03:57:56 GMT 46.740738 4.289491 38,000 349 484 0
2020-09-25 03:57:53 GMT 46.729340 4.292908 38,000 349 484 0
2020-09-25 03:57:50 GMT 46.729340 4.292908 38,000 349 484 0
2020-09-25 03:57:47 GMT 46.724075 4.294448 38,000 349 484 0
2020-09-25 03:57:43 GMT 46.715729 4.296959 38,000 349 485 -64
2020-09-25 03:57:40 GMT 46.705856 4.299942 38,000 349 484 0
2020-09-25 03:57:37 GMT 46.700413 4.301559 38,000 349 484 0
2020-09-25 03:57:31 GMT 46.688126 4.305267 38,000 349 484 -64
2020-09-25 03:57:28 GMT 46.680489 4.307533 38,000 349 483 64
2020-09-25 03:57:25 GMT 46.672623 4.309856 38,000 349 482 0
2020-09-25 03:57:22 GMT 46.666477 4.311722 38,000 349 482 0
2020-09-25 03:57:17 GMT 46.657745 4.314277 38,000 349 482 0
2020-09-25 03:57:14 GMT 46.649643 4.316689 38,000 349 483 0
2020-09-25 03:57:10 GMT 46.631927 4.321981 38,000 349 483 64
2020-09-25 03:57:06 GMT 46.631927 4.321981 38,000 349 484 0
2020-09-25 03:57:02 GMT 46.623596 4.324460 38,000 349 484 64
2020-09-25 03:56:58 GMT 46.614616 4.327171 38,000 349 484 64
2020-09-25 03:56:52 GMT 46.601677 4.331017 38,000 349 484 0
2020-09-25 03:56:49 GMT 46.595299 4.332870 38,000 349 485 0
2020-09-25 03:56:45 GMT 46.587845 4.335111 38,000 349 485 0
2020-09-25 03:56:42 GMT 46.579937 4.337471 38,000 349 485 0
2020-09-25 03:56:39 GMT 46.565411 4.341797 38,000 349 485 0
2020-09-25 03:56:35 GMT 46.565411 4.341797 38,000 349 485 0
2020-09-25 03:56:32 GMT 46.559692 4.343485 38,000 349 485 0
2020-09-25 03:56:29 GMT 46.551353 4.345985 38,000 349 485 0
2020-09-25 03:56:26 GMT 46.545860 4.347633 38,000 349 485 0
2020-09-25 03:56:23 GMT 46.537079 4.350184 38,000 349 485 0
2020-09-25 03:56:20 GMT 46.532684 4.351479 38,000 349 485 0
2020-09-25 03:56:17 GMT 46.525192 4.353676 38,000 349 485 0
2020-09-25 03:56:14 GMT 46.519699 4.355324 38,000 349 485 0
2020-09-25 03:56:11 GMT 46.513321 4.357178 38,000 349 485 64
2020-09-25 03:56:08 GMT 46.506523 4.359238 38,000 349 485 0
2020-09-25 03:56:05 GMT 46.498627 4.361572 38,000 349 485 0
2020-09-25 03:56:01 GMT 46.490067 4.364118 38,000 349 485 64
2020-09-25 03:55:58 GMT 46.484573 4.365793 38,000 349 485 64
2020-09-25 03:55:55 GMT 46.476837 4.368070 38,000 349 487 0
2020-09-25 03:55:51 GMT 46.458984 4.373362 38,000 349 487 0
2020-09-25 03:55:47 GMT 46.458984 4.373362 38,000 349 488 0
2020-09-25 03:55:43 GMT 46.449265 4.376198 38,000 349 488 -64
2020-09-25 03:55:40 GMT 46.443741 4.377784 38,000 349 488 -64
2020-09-25 03:55:37 GMT 46.437332 4.379727 38,000 349 488 0
2020-09-25 03:55:31 GMT 46.423847 4.383682 38,000 349 487 -64
2020-09-25 03:55:28 GMT 46.415886 4.386017 38,000 349 487 0
2020-09-25 03:55:25 GMT 46.410782 4.387564 38,000 349 487 0
2020-09-25 03:55:21 GMT 46.403271 4.389793 38,000 349 487 64
2020-09-25 03:55:18 GMT 46.395081 4.392187 38,000 349 487 -64
2020-09-25 03:55:15 GMT 46.388489 4.394196 38,000 349 488 -64
2020-09-25 03:55:11 GMT 46.378506 4.397141 38,000 349 487 0
2020-09-25 03:55:08 GMT 46.374081 4.398445 38,000 349 487 0
2020-09-25 03:55:05 GMT 46.366821 4.400574 38,000 349 487 0
2020-09-25 03:55:01 GMT 46.354202 4.404245 38,000 349 488 0
2020-09-25 03:54:57 GMT 46.347595 4.406204 38,000 349 488 64
2020-09-25 03:54:54 GMT 46.343170 4.407509 38,000 349 488 64
2020-09-25 03:54:51 GMT 46.333630 4.410324 38,000 349 488 -64
2020-09-25 03:54:48 GMT 46.327881 4.412016 38,000 349 488 -64
2020-09-25 03:54:45 GMT 46.321896 4.413757 38,000 349 488 0
2020-09-25 03:54:41 GMT 46.312820 4.416437 38,000 349 488 64
2020-09-25 03:54:38 GMT 46.306870 4.418179 38,000 349 488 0
2020-09-25 03:54:34 GMT 46.298218 4.420724 38,000 349 489 64
2020-09-25 03:54:31 GMT 46.290707 4.422958 38,000 349 488 64
2020-09-25 03:54:28 GMT 46.284702 4.424744 38,000 349 488 0
2020-09-25 03:54:25 GMT 46.278091 4.426666 38,000 349 488 0
2020-09-25 03:54:22 GMT 46.271896 4.428495 38,000 349 488 -64
2020-09-25 03:54:19 GMT 46.265030 4.430505 38,000 349 488 -64
2020-09-25 03:54:16 GMT 46.249786 4.434975 38,000 349 487 0
2020-09-25 03:54:13 GMT 46.249786 4.434975 38,000 349 487 64
2020-09-25 03:54:10 GMT 46.244019 4.436668 38,000 349 487 0
2020-09-25 03:54:07 GMT 46.239594 4.437996 38,000 349 486 0
2020-09-25 03:54:04 GMT 46.232574 4.440084 38,000 349 486 0
2020-09-25 03:54:00 GMT 46.222881 4.442940 38,000 349 486 0
2020-09-25 03:53:57 GMT 46.217148 4.444573 38,000 349 486 0
2020-09-25 03:53:54 GMT 46.209412 4.446850 38,000 349 486 0
2020-09-25 03:53:50 GMT 46.201511 4.449188 38,000 349 485 0
2020-09-25 03:53:47 GMT 46.194019 4.451385 38,000 349 485 0
2020-09-25 03:53:44 GMT 46.187439 4.453348 38,000 349 485 0
2020-09-25 03:53:41 GMT 46.179958 4.455505 38,000 349 485 0
2020-09-25 03:53:38 GMT 46.175125 4.456966 38,000 349 485 0
2020-09-25 03:53:35 GMT 46.167847 4.459042 38,000 349 485 0
2020-09-25 03:53:32 GMT 46.160614 4.461186 38,000 349 485 64
2020-09-25 03:53:28 GMT 46.152260 4.463676 38,000 349 486 0
2020-09-25 03:53:24 GMT 46.143448 4.466210 38,000 349 486 0
2020-09-25 03:53:19 GMT 46.131546 4.469719 38,000 349 486 0
2020-09-25 03:53:16 GMT 46.126888 4.471092 38,000 349 487 0
2020-09-25 03:53:13 GMT 46.117630 4.473780 38,000 349 487 64
2020-09-25 03:53:10 GMT 46.114086 4.474800 38,000 349 487 64
2020-09-25 03:53:07 GMT 46.106140 4.477130 38,000 349 488 64
2020-09-25 03:53:04 GMT 46.099503 4.479072 38,000 349 488 64
2020-09-25 03:53:01 GMT 46.092178 4.481149 38,000 349 489 64
2020-09-25 03:52:57 GMT 46.084202 4.483521 38,000 349 489 -64
2020-09-25 03:52:54 GMT 46.075562 4.486039 38,000 349 490 -64
2020-09-25 03:52:50 GMT 46.066864 4.488518 38,000 349 490 0
2020-09-25 03:52:47 GMT 46.059082 4.490796 38,000 349 490 0
2020-09-25 03:52:44 GMT 46.054874 4.492035 38,000 349 490 -64
2020-09-25 03:52:37 GMT 46.040630 4.496155 38,025 349 491 0
2020-09-25 03:52:34 GMT 46.033081 4.498365 38,000 349 490 0
2020-09-25 03:52:31 GMT 46.023743 4.501112 38,000 349 490 -64
2020-09-25 03:52:28 GMT 46.017307 4.502953 38,000 349 490 0
2020-09-25 03:52:24 GMT 46.008820 4.505466 38,000 349 490 0
2020-09-25 03:52:21 GMT 46.005066 4.506538 38,000 349 490 -64
2020-09-25 03:52:18 GMT 45.998154 4.508548 38,000 349 490 0
2020-09-25 03:52:14 GMT 45.988586 4.511361 38,000 349 490 0
2020-09-25 03:52:11 GMT 45.983047 4.512969 38,000 349 490 -64
2020-09-25 03:52:07 GMT 45.966797 4.517715 38,000 349 490 0
2020-09-25 03:52:04 GMT 45.966797 4.517715 38,000 349 490 0
2020-09-25 03:52:01 GMT 45.959473 4.519802 38,000 349 490 0
2020-09-25 03:51:58 GMT 45.952606 4.521812 38,000 349 490 -64
2020-09-25 03:51:55 GMT 45.945694 4.523822 38,000 349 490 0
2020-09-25 03:51:52 GMT 45.936817 4.526436 38,000 349 490 0
2020-09-25 03:51:48 GMT 45.921936 4.530722 38,000 349 490 0
2020-09-25 03:51:44 GMT 45.921936 4.530722 38,000 349 490 0
2020-09-25 03:51:41 GMT 45.914566 4.532865 38,000 349 490 64
2020-09-25 03:51:37 GMT 45.905914 4.535411 38,000 349 490 64
2020-09-25 03:51:34 GMT 45.899002 4.537354 38,000 349 491 64
2020-09-25 03:51:31 GMT 45.892090 4.539363 38,000 349 491 64
2020-09-25 03:51:28 GMT 45.885223 4.541373 38,000 349 491 64
2020-09-25 03:51:25 GMT 45.878487 4.543327 38,000 349 492 0
2020-09-25 03:51:22 GMT 45.872948 4.544907 38,000 349 492 0
2020-09-25 03:51:19 GMT 45.865585 4.547067 38,000 349 493 64
2020-09-25 03:51:16 GMT 45.856838 4.549576 38,000 349 493 64
2020-09-25 03:51:13 GMT 45.846786 4.552460 38,000 349 493 0
2020-09-25 03:51:10 GMT 45.846786 4.552460 38,000 349 494 64
2020-09-25 03:51:05 GMT 45.834915 4.555893 38,000 349 494 0
2020-09-25 03:51:02 GMT 45.828186 4.557852 38,000 349 494 0
2020-09-25 03:50:59 GMT 45.819214 4.560465 38,000 349 495 0
2020-09-25 03:50:54 GMT 45.810471 4.563011 38,000 349 495 64
2020-09-25 03:50:51 GMT 45.803513 4.565020 38,000 349 495 64
2020-09-25 03:50:48 GMT 45.796783 4.566963 37,975 349 485 64
2020-09-25 03:50:43 GMT 45.783279 4.570848 38,000 349 496 -64
2020-09-25 03:50:40 GMT 45.777889 4.572372 38,000 349 496 0
2020-09-25 03:50:36 GMT 45.770020 4.574638 38,000 349 496 64
2020-09-25 03:50:33 GMT 45.764191 4.576342 38,000 349 496 0
2020-09-25 03:50:30 GMT 45.755169 4.578896 38,000 349 496 0
2020-09-25 03:50:27 GMT 45.748188 4.580956 38,000 349 496 -64
2020-09-25 03:50:22 GMT 45.738281 4.583777 38,000 349 496 0
2020-09-25 03:50:19 GMT 45.732651 4.585452 38,000 349 495 -64
2020-09-25 03:50:16 GMT 45.725887 4.587410 38,000 349 496 0
2020-09-25 03:50:13 GMT 45.717819 4.589673 38,000 349 496 -64
2020-09-25 03:50:10 GMT 45.709488 4.592084 38,000 349 495 -64
2020-09-25 03:50:06 GMT 45.702518 4.594070 38,000 349 490 0
2020-09-25 03:50:02 GMT 45.692642 4.596907 38,000 349 495 -64
2020-09-25 03:49:59 GMT 45.686832 4.598602 38,000 349 494 0
2020-09-25 03:49:56 GMT 45.679871 4.600592 38,000 349 494 0
2020-09-25 03:49:52 GMT 45.672043 4.602870 38,000 349 493 0
2020-09-25 03:49:49 GMT 45.663757 4.605281 38,000 349 490 0
2020-09-25 03:49:46 GMT 45.657505 4.607048 38,000 349 490 0
2020-09-25 03:49:42 GMT 45.649017 4.609502 38,000 349 492 -64
2020-09-25 03:49:39 GMT 45.641235 4.611712 38,000 349 492 -64
2020-09-25 03:49:36 GMT 45.634087 4.613777 38,000 349 491 0
2020-09-25 03:49:33 GMT 45.628784 4.615263 38,000 349 490 0
2020-09-25 03:49:30 GMT 45.622543 4.617073 38,000 349 490 0
2020-09-25 03:49:26 GMT 45.612114 4.620094 38,000 349 489 0
2020-09-25 03:49:21 GMT 45.601036 4.623253 38,000 349 489 0
2020-09-25 03:49:18 GMT 45.594612 4.625107 38,025 349 484 0
2020-09-25 03:49:14 GMT 45.585533 4.627785 38,000 349 488 -64
2020-09-25 03:49:11 GMT 45.578888 4.629665 38,000 349 487 -64
2020-09-25 03:49:08 GMT 45.570282 4.632144 38,000 349 486 -64
2020-09-25 03:49:05 GMT 45.565422 4.633553 38,025 349 486 -64
2020-09-25 03:49:02 GMT 45.560768 4.634857 38,000 349 486 0
2020-09-25 03:48:58 GMT 45.551319 4.637535 38,025 349 486 -64
2020-09-25 03:48:55 GMT 45.544693 4.639435 38,025 349 485 -64
2020-09-25 03:48:52 GMT 45.537689 4.641462 38,025 349 485 0
2020-09-25 03:48:48 GMT 45.528900 4.644012 38,000 349 484 0
2020-09-25 03:48:44 GMT 45.520546 4.646346 38,000 349 484 0
2020-09-25 03:48:41 GMT 45.512402 4.648691 38,000 349 484 64
2020-09-25 03:48:38 GMT 45.494614 4.653822 37,975 349 485 64
2020-09-25 03:48:32 GMT 45.494614 4.653822 37,975 349 485 0
2020-09-25 03:48:29 GMT 45.487122 4.655925 37,975 349 485 0
2020-09-25 03:48:25 GMT 45.479233 4.658203 37,975 349 485 64
2020-09-25 03:48:21 GMT 45.468456 4.661285 37,975 349 485 64
2020-09-25 03:48:18 GMT 45.461380 4.663304 37,975 349 485 64
2020-09-25 03:48:13 GMT 45.451744 4.666108 37,975 349 485 64
2020-09-25 03:48:10 GMT 45.443596 4.668453 37,975 349 485 64
2020-09-25 03:48:07 GMT 45.438309 4.669909 37,975 349 486 64
2020-09-25 03:48:04 GMT 45.426605 4.673209 38,000 349 486 64
2020-09-25 03:48:01 GMT 45.426605 4.673209 38,000 349 486 0
2020-09-25 03:47:58 GMT 45.419357 4.675337 38,000 349 486 -64
2020-09-25 03:47:55 GMT 45.411198 4.677630 38,000 349 486 64
2020-09-25 03:47:52 GMT 45.406773 4.678903 38,000 349 486 64
2020-09-25 03:47:49 GMT 45.400177 4.680764 38,000 349 486 0
2020-09-25 03:47:46 GMT 45.393555 4.682654 38,000 349 486 0
2020-09-25 03:47:43 GMT 45.378563 4.686875 38,000 349 487 0
2020-09-25 03:47:40 GMT 45.378563 4.686875 38,000 349 487 -64
2020-09-25 03:47:36 GMT 45.371475 4.688939 38,000 349 487 -128
2020-09-25 03:47:32 GMT 45.362640 4.691430 38,000 349 487 -64
2020-09-25 03:47:29 GMT 45.356216 4.693239 38,000 349 487 -64
2020-09-25 03:47:26 GMT 45.348267 4.695478 38,000 349 487 -64
2020-09-25 03:47:20 GMT 45.332794 4.699925 38,025 349 487 0
2020-09-25 03:47:16 GMT 45.326191 4.701746 38,025 349 488 -64
2020-09-25 03:47:12 GMT 45.318649 4.703914 38,025 349 488 0
2020-09-25 03:47:09 GMT 45.310223 4.706302 38,025 349 488 -64
2020-09-25 03:47:06 GMT 45.303177 4.708296 38,000 349 488 0
2020-09-25 03:47:03 GMT 45.288528 4.712481 38,000 349 489 64
2020-09-25 03:46:59 GMT 45.288528 4.712481 38,000 349 489 0
2020-09-25 03:46:55 GMT 45.279686 4.714943 38,000 349 489 0
2020-09-25 03:46:52 GMT 45.273926 4.716601 38,000 349 489 0
2020-09-25 03:46:49 GMT 45.266605 4.718695 38,000 349 489 0
2020-09-25 03:46:45 GMT 45.255943 4.721709 38,000 349 488 0
2020-09-25 03:46:42 GMT 45.251541 4.722944 38,000 349 489 0
2020-09-25 03:46:39 GMT 45.243980 4.725059 38,000 349 489 0
2020-09-25 03:46:35 GMT 45.235786 4.727404 38,000 349 488 0
2020-09-25 03:46:32 GMT 45.228943 4.729346 38,000 349 488 0
2020-09-25 03:46:29 GMT 45.221214 4.731490 38,000 349 487 64
2020-09-25 03:46:25 GMT 45.213684 4.733669 38,000 349 487 64
2020-09-25 03:46:22 GMT 45.207066 4.735509 38,000 349 486 -64
2020-09-25 03:46:18 GMT 45.199337 4.737653 38,000 349 486 -64
2020-09-25 03:46:13 GMT 45.186584 4.741320 38,000 349 485 0
2020-09-25 03:46:10 GMT 45.181503 4.742759 38,000 349 484 64
2020-09-25 03:46:07 GMT 45.174683 4.744655 38,000 349 484 64
2020-09-25 03:46:04 GMT 45.165493 4.747300 38,000 349 484 -64
2020-09-25 03:46:01 GMT 45.161770 4.748371 38,000 349 484 -64
2020-09-25 03:45:58 GMT 45.152782 4.750917 38,000 349 483 0
2020-09-25 03:45:54 GMT 45.144241 4.753287 38,000 349 483 0
2020-09-25 03:45:51 GMT 45.139847 4.754530 38,000 349 482 0
2020-09-25 03:45:48 GMT 45.132202 4.756688 38,000 349 482 0
2020-09-25 03:45:45 GMT 45.126110 4.758420 38,000 349 482 -64
2020-09-25 03:45:42 GMT 45.118427 4.760564 38,000 349 481 0
2020-09-25 03:45:39 GMT 45.110374 4.762841 38,000 349 480 0
2020-09-25 03:45:36 GMT 45.104511 4.764449 38,000 349 480 64
2020-09-25 03:45:33 GMT 45.098831 4.766105 38,000 349 480 64
2020-09-25 03:45:30 GMT 45.087097 4.769406 38,000 349 479 -64
2020-09-25 03:45:27 GMT 45.079742 4.771467 38,000 349 479 -64
2020-09-25 03:45:24 GMT 45.079742 4.771467 38,000 349 479 0
2020-09-25 03:45:21 GMT 45.073227 4.773292 38,000 349 479 0
2020-09-25 03:45:18 GMT 45.066696 4.775129 38,000 349 478 64
2020-09-25 03:45:15 GMT 45.060192 4.776976 38,000 349 478 0
2020-09-25 03:45:12 GMT 45.054565 4.778530 38,000 349 478 0
2020-09-25 03:45:09 GMT 45.048935 4.780099 38,000 349 478 0
2020-09-25 03:45:06 GMT 45.041153 4.782257 38,000 349 477 0
2020-09-25 03:45:02 GMT 45.030308 4.785350 38,000 349 477 0
2020-09-25 03:44:57 GMT 45.020828 4.788012 38,000 349 476 0
2020-09-25 03:44:54 GMT 45.013035 4.790173 38,000 349 476 0
2020-09-25 03:44:50 GMT 45.005722 4.792262 38,000 349 475 0
2020-09-25 03:44:45 GMT 44.993668 4.795666 38,000 349 474 0
2020-09-25 03:44:42 GMT 44.989380 4.796906 38,000 349 474 0
2020-09-25 03:44:39 GMT 44.983799 4.798480 38,000 349 474 0
2020-09-25 03:44:36 GMT 44.975887 4.800690 38,000 349 471 0
2020-09-25 03:44:33 GMT 44.967087 4.803236 38,000 349 472 0
2020-09-25 03:44:30 GMT 44.963013 4.804361 38,025 349 472 0
2020-09-25 03:44:27 GMT 44.954285 4.806854 38,000 349 471 -64
2020-09-25 03:44:24 GMT 44.950840 4.807791 38,000 349 471 -64
2020-09-25 03:44:21 GMT 44.943394 4.809868 38,000 349 471 -64
2020-09-25 03:44:18 GMT 44.938877 4.811141 38,025 349 471 -64
2020-09-25 03:44:15 GMT 44.932266 4.813017 38,025 349 469 0
2020-09-25 03:44:12 GMT 44.924400 4.815227 38,000 349 469 0
2020-09-25 03:44:09 GMT 44.918015 4.816982 38,000 349 469 64
2020-09-25 03:44:03 GMT 44.905884 4.820317 38,000 349 469 64
2020-09-25 03:44:00 GMT 44.899494 4.822060 38,000 349 469 0
2020-09-25 03:43:57 GMT 44.892464 4.824070 38,000 349 470 0
2020-09-25 03:43:54 GMT 44.884781 4.826202 38,000 349 470 0
2020-09-25 03:43:51 GMT 44.880127 4.827486 38,000 349 469 64
2020-09-25 03:43:48 GMT 44.874775 4.828960 38,000 349 469 128
2020-09-25 03:43:45 GMT 44.867142 4.831104 37,975 349 469 64
2020-09-25 03:43:41 GMT 44.857544 4.833854 37,975 349 470 64
2020-09-25 03:43:38 GMT 44.853500 4.834989 37,975 349 470 64
2020-09-25 03:43:35 GMT 44.843956 4.837669 37,975 349 470 64
2020-09-25 03:43:32 GMT 44.839489 4.838875 37,975 349 470 64
2020-09-25 03:43:28 GMT 44.832230 4.840916 37,975 349 470 0
2020-09-25 03:43:25 GMT 44.824997 4.842943 37,975 349 469 -64
2020-09-25 03:43:22 GMT 44.818169 4.844837 38,000 349 469 0
2020-09-25 03:43:19 GMT 44.812637 4.846344 38,000 349 469 64
2020-09-25 03:43:16 GMT 44.796021 4.850987 38,000 349 469 0
2020-09-25 03:43:12 GMT 44.796021 4.850987 38,000 349 469 0
2020-09-25 03:43:06 GMT 44.781555 4.855042 38,000 349 468 0
2020-09-25 03:43:01 GMT 44.764771 4.859708 38,000 349 468 0
2020-09-25 03:42:58 GMT 44.764771 4.859708 38,000 349 468 0
2020-09-25 03:42:54 GMT 44.759674 4.861123 38,000 349 468 0
2020-09-25 03:42:51 GMT 44.752213 4.863150 38,000 349 468 0
2020-09-25 03:42:48 GMT 44.746490 4.864785 38,000 349 468 -64
2020-09-25 03:42:44 GMT 44.735863 4.867747 38,000 349 468 0
2020-09-25 03:42:41 GMT 44.730556 4.869221 38,000 349 468 0
2020-09-25 03:42:38 GMT 44.725250 4.870695 38,000 349 468 0
2020-09-25 03:42:34 GMT 44.717381 4.872905 38,000 349 468 0
2020-09-25 03:42:30 GMT 44.707420 4.875652 38,000 349 468 0
2020-09-25 03:42:26 GMT 44.694244 4.879336 38,000 349 468 64
2020-09-25 03:42:20 GMT 44.684654 4.881949 38,000 349 469 0
2020-09-25 03:42:17 GMT 44.681492 4.882887 37,975 349 469 0
2020-09-25 03:42:13 GMT 44.669998 4.886039 38,000 349 469 0
2020-09-25 03:42:09 GMT 44.663818 4.887739 38,000 349 470 0
2020-09-25 03:42:06 GMT 44.657181 4.889570 38,000 349 470 0
2020-09-25 03:42:02 GMT 44.647831 4.892199 38,000 349 470 -128
2020-09-25 03:41:59 GMT 44.640152 4.894342 38,000 349 469 -128
2020-09-25 03:41:56 GMT 44.635029 4.895749 38,025 349 469 -64
2020-09-25 03:41:52 GMT 44.626740 4.898071 38,025 349 469 64
2020-09-25 03:41:49 GMT 44.620331 4.899772 38,025 349 469 64
2020-09-25 03:41:46 GMT 44.613327 4.901733 38,000 349 470 64
2020-09-25 03:41:40 GMT 44.601791 4.904872 38,000 349 469 -128
2020-09-25 03:41:37 GMT 44.592224 4.907554 38,000 349 470 -128
2020-09-25 03:41:33 GMT 44.587738 4.908796 38,000 349 469 -64
2020-09-25 03:41:29 GMT 44.577301 4.911673 38,000 349 469 64
2020-09-25 03:41:26 GMT 44.568832 4.914037 38,000 349 468 0
2020-09-25 03:41:23 GMT 44.565620 4.914908 38,000 349 468 -64
2020-09-25 03:41:20 GMT 44.557159 4.917297 38,000 349 467 -128
2020-09-25 03:41:17 GMT 44.551189 4.918927 38,000 349 467 0
2020-09-25 03:41:13 GMT 44.544209 4.920870 38,000 349 466 0
2020-09-25 03:41:09 GMT 44.535549 4.923282 38,000 349 465 0
2020-09-25 03:41:06 GMT 44.529419 4.924949 38,000 349 465 0
2020-09-25 03:41:03 GMT 44.523285 4.926649 38,000 349 465 64
2020-09-25 03:40:58 GMT 44.511715 4.929914 38,000 349 464 0
2020-09-25 03:40:55 GMT 44.505615 4.931589 38,000 349 464 0
2020-09-25 03:40:52 GMT 44.501377 4.932727 38,000 349 464 0
2020-09-25 03:40:49 GMT 44.493164 4.935019 38,000 349 464 64
2020-09-25 03:40:46 GMT 44.487259 4.936589 38,000 349 464 64
2020-09-25 03:40:43 GMT 44.480522 4.938421 38,000 349 464 0
2020-09-25 03:40:38 GMT 44.469818 4.941363 38,000 349 463 0
2020-09-25 03:40:35 GMT 44.464973 4.942709 38,000 349 463 0
2020-09-25 03:40:32 GMT 44.458649 4.944436 38,000 349 464 64
2020-09-25 03:40:29 GMT 44.450031 4.946862 38,000 349 464 64
2020-09-25 03:40:26 GMT 44.443909 4.948491 38,000 349 464 64
2020-09-25 03:40:21 GMT 44.435074 4.950976 38,000 349 465 64
2020-09-25 03:40:18 GMT 44.427704 4.953003 38,000 349 465 -64
2020-09-25 03:40:15 GMT 44.420746 4.954965 38,000 349 465 -64
2020-09-25 03:40:12 GMT 44.412460 4.957188 38,000 349 465 -64
2020-09-25 03:40:08 GMT 44.406971 4.958719 38,000 349 466 0
2020-09-25 03:40:05 GMT 44.400639 4.960461 38,000 349 466 64
2020-09-25 03:40:01 GMT 44.390911 4.963141 38,000 349 467 0
2020-09-25 03:39:58 GMT 44.384766 4.964815 38,000 349 467 0
2020-09-25 03:39:55 GMT 44.379456 4.966278 38,000 349 467 0
2020-09-25 03:39:51 GMT 44.368610 4.969237 38,000 349 467 0
2020-09-25 03:39:46 GMT 44.361374 4.971248 38,000 349 468 -64
2020-09-25 03:39:42 GMT 44.351807 4.973864 38,000 349 468 0
2020-09-25 03:39:37 GMT 44.341377 4.976673 38,000 349 469 0
2020-09-25 03:39:34 GMT 44.334816 4.978481 38,000 349 469 0
2020-09-25 03:39:30 GMT 44.324158 4.981384 38,000 349 468 0
2020-09-25 03:39:27 GMT 44.319672 4.982627 38,000 349 468 0
2020-09-25 03:39:24 GMT 44.312889 4.984510 38,000 349 469 0
2020-09-25 03:39:21 GMT 44.307541 4.985962 38,000 349 469 0
2020-09-25 03:39:18 GMT 44.300320 4.987927 38,000 349 469 0
2020-09-25 03:39:15 GMT 44.293289 4.989870 38,000 349 470 64
2020-09-25 03:39:11 GMT 44.286217 4.991812 38,000 349 470 0
2020-09-25 03:39:07 GMT 44.271927 4.995706 38,000 349 470 -64
2020-09-25 03:39:04 GMT 44.271927 4.995706 38,000 349 470 0
2020-09-25 03:39:01 GMT 44.265079 4.997573 38,000 349 470 0
2020-09-25 03:38:57 GMT 44.255905 5.000087 38,000 349 471 0
2020-09-25 03:38:54 GMT 44.248180 5.002196 38,000 349 471 0
2020-09-25 03:38:51 GMT 44.243271 5.003488 38,000 349 471 0
2020-09-25 03:38:47 GMT 44.226814 5.007957 38,000 349 471 0
2020-09-25 03:38:44 GMT 44.226814 5.007957 38,000 349 471 0
2020-09-25 03:38:41 GMT 44.221664 5.009373 38,000 349 471 0
2020-09-25 03:38:37 GMT 44.209496 5.012713 38,000 349 470 64
2020-09-25 03:38:34 GMT 44.206284 5.013624 38,000 349 470 64
2020-09-25 03:38:31 GMT 44.200104 5.015324 38,000 349 470 0
2020-09-25 03:38:27 GMT 44.191154 5.017809 38,000 349 471 0
2020-09-25 03:38:24 GMT 44.185181 5.019411 38,000 349 471 0
2020-09-25 03:38:21 GMT 44.178959 5.021144 38,000 349 470 0
2020-09-25 03:38:16 GMT 44.167648 5.024201 38,000 349 470 0
2020-09-25 03:38:13 GMT 44.155312 5.027553 38,000 349 470 0
2020-09-25 03:38:10 GMT 44.155312 5.027553 38,000 349 469 0
2020-09-25 03:38:06 GMT 44.145489 5.030234 38,000 349 469 0
2020-09-25 03:38:03 GMT 44.140594 5.031547 38,000 349 469 64
2020-09-25 03:38:00 GMT 44.135059 5.033112 38,000 349 469 -64
2020-09-25 03:37:56 GMT 44.124397 5.035989 38,000 349 469 -64
2020-09-25 03:37:53 GMT 44.118858 5.037493 38,000 349 469 -64
2020-09-25 03:37:50 GMT 44.113132 5.039062 38,000 349 469 0
2020-09-25 03:37:47 GMT 44.104614 5.041383 38,000 349 469 -64
2020-09-25 03:37:43 GMT 44.096931 5.043444 38,025 349 469 -64
2020-09-25 03:37:40 GMT 44.091625 5.044948 38,025 349 469 -64
2020-09-25 03:37:36 GMT 44.083340 5.047171 38,000 349 470 -64
2020-09-25 03:37:33 GMT 44.076096 5.049176 38,000 349 469 0
2020-09-25 03:37:30 GMT 44.070770 5.050572 38,000 349 470 -64
2020-09-25 03:37:27 GMT 44.064114 5.052403 38,025 349 470 0
2020-09-25 03:37:24 GMT 44.055782 5.054626 38,000 349 471 0
2020-09-25 03:37:20 GMT 44.048538 5.056585 38,000 349 471 0
2020-09-25 03:37:17 GMT 44.041256 5.058550 38,000 349 471 -64
2020-09-25 03:37:13 GMT 44.032242 5.060993 38,000 349 472 0
2020-09-25 03:37:10 GMT 44.027344 5.062334 38,000 349 472 64
2020-09-25 03:37:06 GMT 44.019791 5.064378 38,000 349 472 64
2020-09-25 03:37:02 GMT 44.004574 5.068490 38,000 349 473 0
2020-09-25 03:36:59 GMT 44.004574 5.068490 38,000 349 473 0
2020-09-25 03:36:54 GMT 43.993790 5.071404 38,000 350 474 64
2020-09-25 03:36:51 GMT 43.988022 5.073001 38,000 350 474 0
2020-09-25 03:36:47 GMT 43.977016 5.075945 38,000 349 474 0
2020-09-25 03:36:44 GMT 43.972687 5.077122 38,000 349 474 0
2020-09-25 03:36:41 GMT 43.966026 5.078888 38,000 349 474 0
2020-09-25 03:36:37 GMT 43.953552 5.082288 38,000 349 474 0
2020-09-25 03:36:32 GMT 43.945358 5.084498 38,000 349 473 -64
2020-09-25 03:36:29 GMT 43.939590 5.086095 38,000 349 473 -64
2020-09-25 03:36:26 GMT 43.932678 5.087947 38,000 349 473 0
2020-09-25 03:36:22 GMT 43.922596 5.090659 38,000 350 472 64
2020-09-25 03:36:19 GMT 43.918312 5.091771 38,000 350 472 0
2020-09-25 03:36:16 GMT 43.910583 5.093863 38,000 350 472 64
2020-09-25 03:36:12 GMT 43.902649 5.095996 38,000 350 472 0
2020-09-25 03:36:09 GMT 43.896248 5.097722 38,000 350 472 0
2020-09-25 03:36:04 GMT 43.884476 5.100914 38,000 349 471 0
2020-09-25 03:36:01 GMT 43.879303 5.102319 38,000 349 471 0
2020-09-25 03:35:58 GMT 43.873123 5.103980 38,000 349 471 0
2020-09-25 03:35:55 GMT 43.865849 5.105961 38,000 349 470 -64
2020-09-25 03:35:52 GMT 43.860718 5.107365 38,000 349 470 0
2020-09-25 03:35:49 GMT 43.854301 5.109100 38,000 349 469 0
2020-09-25 03:35:45 GMT 43.843037 5.112109 38,000 349 469 0
2020-09-25 03:35:41 GMT 43.836845 5.113809 38,000 349 468 64
2020-09-25 03:35:37 GMT 43.828979 5.115967 38,000 349 468 0
2020-09-25 03:35:34 GMT 43.821304 5.118032 38,000 349 468 128
2020-09-25 03:35:31 GMT 43.814919 5.119694 38,000 349 468 64
2020-09-25 03:35:26 GMT 43.801327 5.123422 38,000 349 467 -64
2020-09-25 03:35:22 GMT 43.795395 5.124994 38,000 349 467 0
2020-09-25 03:35:15 GMT 43.780563 5.129018 38,000 350 467 0
2020-09-25 03:35:12 GMT 43.773769 5.130811 38,000 350 466 -64
2020-09-25 03:35:07 GMT 43.764267 5.133362 38,000 350 466 0
2020-09-25 03:35:04 GMT 43.758957 5.134767 38,000 350 466 64
2020-09-25 03:35:01 GMT 43.750912 5.136959 38,000 350 466 64
2020-09-25 03:34:57 GMT 43.743092 5.139051 38,000 350 466 64
2020-09-25 03:34:51 GMT 43.730801 5.142321 38,000 350 466 64
2020-09-25 03:34:47 GMT 43.721676 5.144741 38,000 350 467 0
2020-09-25 03:34:44 GMT 43.716202 5.146200 38,000 350 467 -64
2020-09-25 03:34:41 GMT 43.708965 5.148141 38,000 350 467 0
2020-09-25 03:34:36 GMT 43.700310 5.150495 38,000 350 466 0
2020-09-25 03:34:33 GMT 43.692020 5.152653 38,000 349 466 0
2020-09-25 03:34:30 GMT 43.684204 5.154823 38,000 349 466 -64
2020-09-25 03:34:27 GMT 43.681034 5.155661 38,000 350 466 -64
2020-09-25 03:34:24 GMT 43.672146 5.158016 38,000 349 465 0
2020-09-25 03:34:19 GMT 43.662003 5.160764 38,000 349 465 0
2020-09-25 03:34:15 GMT 43.651241 5.163640 38,000 349 464 0
2020-09-25 03:34:09 GMT 43.639893 5.166704 38,000 349 463 -64
2020-09-25 03:34:06 GMT 43.635452 5.167854 38,000 350 463 0
2020-09-25 03:34:03 GMT 43.628723 5.169642 38,000 350 463 0
2020-09-25 03:33:58 GMT 43.613388 5.173730 38,000 350 462 0
2020-09-25 03:33:50 GMT 43.601898 5.176849 38,000 349 462 0
2020-09-25 03:33:47 GMT 43.593704 5.179032 38,000 349 462 -64
2020-09-25 03:33:44 GMT 43.588898 5.180373 38,000 349 462 -64
2020-09-25 03:33:40 GMT 43.581116 5.182417 38,000 350 462 64
2020-09-25 03:33:36 GMT 43.572102 5.184828 38,000 350 462 64
2020-09-25 03:33:33 GMT 43.566833 5.186249 38,000 350 462 64
2020-09-25 03:33:29 GMT 43.558868 5.188357 37,975 350 463 0
2020-09-25 03:33:26 GMT 43.550037 5.190713 37,975 350 463 -64
2020-09-25 03:33:23 GMT 43.545010 5.192021 38,000 350 463 0
2020-09-25 03:33:20 GMT 43.537003 5.194179 38,000 350 463 0
2020-09-25 03:33:14 GMT 43.524811 5.197364 38,000 350 462 0
2020-09-25 03:33:09 GMT 43.515381 5.199855 38,000 350 462 64
2020-09-25 03:33:06 GMT 43.510162 5.201260 38,000 350 461 0
2020-09-25 03:33:03 GMT 43.501968 5.203432 38,000 349 460 -64
2020-09-25 03:32:59 GMT 43.494453 5.205427 38,000 349 460 0
2020-09-25 03:32:56 GMT 43.488190 5.207136 38,000 349 459 0
2020-09-25 03:32:53 GMT 43.481934 5.208762 38,000 349 458 -64
2020-09-25 03:32:46 GMT 43.467636 5.212629 38,000 349 457 64
2020-09-25 03:32:42 GMT 43.460377 5.214582 38,000 350 456 64
2020-09-25 03:32:39 GMT 43.453300 5.216479 38,000 350 456 64
2020-09-25 03:32:36 GMT 43.447128 5.218123 38,000 350 456 64
2020-09-25 03:32:33 GMT 43.438843 5.220358 38,000 350 456 0
2020-09-25 03:32:28 GMT 43.431793 5.222233 38,000 350 456 64
2020-09-25 03:32:25 GMT 43.425568 5.223871 38,000 350 457 64
2020-09-25 03:32:22 GMT 43.417465 5.226043 38,000 350 457 0
2020-09-25 03:32:18 GMT 43.411057 5.227768 38,000 350 456 0
2020-09-25 03:32:15 GMT 43.404423 5.229492 38,000 350 456 0
2020-09-25 03:32:11 GMT 43.395905 5.231781 38,000 350 456 0
2020-09-25 03:32:08 GMT 43.389725 5.233452 38,000 350 456 0
2020-09-25 03:32:05 GMT 43.383518 5.235116 38,000 350 456 0
2020-09-25 03:32:02 GMT 43.374580 5.237470 38,000 350 456 0
2020-09-25 03:31:58 GMT 43.368202 5.239171 38,000 350 456 -64
2020-09-25 03:31:55 GMT 43.363037 5.240544 38,000 350 456 0
2020-09-25 03:31:51 GMT 43.351212 5.243683 38,000 350 456 0
2020-09-25 03:31:48 GMT 43.347301 5.244729 38,000 350 456 0
2020-09-25 03:31:43 GMT 43.337154 5.247345 38,000 350 456 0
2020-09-25 03:31:40 GMT 43.330730 5.249045 38,000 350 456 0
2020-09-25 03:31:35 GMT 43.320602 5.251720 38,000 350 456 0
2020-09-25 03:31:30 GMT 43.308151 5.254996 38,000 350 456 0
2020-09-25 03:31:25 GMT 43.299683 5.257277 38,000 350 456 64
2020-09-25 03:31:20 GMT 43.290134 5.259770 38,000 350 456 0
2020-09-25 03:31:17 GMT 43.283936 5.261429 38,000 350 456 0
2020-09-25 03:31:12 GMT 43.272121 5.264544 38,000 350 456 0
2020-09-25 03:31:08 GMT 43.261963 5.267242 38,000 350 456 0
2020-09-25 03:31:04 GMT 43.257843 5.268391 38,000 350 456 -64
2020-09-25 03:31:00 GMT 43.245850 5.271585 38,000 349 455 -64
2020-09-25 03:30:57 GMT 43.242744 5.272391 38,000 349 455 -64
2020-09-25 03:30:54 GMT 43.236969 5.273948 38,000 349 455 -64
2020-09-25 03:30:50 GMT 43.219795 5.278473 38,025 350 455 0
2020-09-25 03:30:47 GMT 43.219795 5.278473 38,025 350 455 0
2020-09-25 03:30:43 GMT 43.214630 5.279846 38,025 350 455 64
2020-09-25 03:30:40 GMT 43.207214 5.281805 38,025 350 455 64
2020-09-25 03:30:37 GMT 43.200394 5.283593 38,000 350 457 64
2020-09-25 03:30:34 GMT 43.194763 5.284999 38,000 350 457 64
2020-09-25 03:30:29 GMT 43.184601 5.287681 38,000 350 459 0
2020-09-25 03:30:24 GMT 43.173752 5.290556 38,000 350 460 -64
2020-09-25 03:30:20 GMT 43.164322 5.292983 38,000 350 462 0
2020-09-25 03:30:17 GMT 43.157822 5.294708 38,000 350 463 64
2020-09-25 03:30:14 GMT 43.152573 5.296129 38,000 350 463 64
2020-09-25 03:30:11 GMT 43.145416 5.297965 38,000 350 463 0
2020-09-25 03:30:07 GMT 43.136375 5.300380 38,000 350 464 -64
2020-09-25 03:30:04 GMT 43.131546 5.301670 38,000 350 464 -192
2020-09-25 03:30:01 GMT 43.125000 5.303394 38,000 350 464 -192
2020-09-25 03:29:56 GMT 43.115524 5.305885 38,025 350 463 0
2020-09-25 03:29:53 GMT 43.109436 5.307482 38,025 350 463 0
2020-09-25 03:29:49 GMT 43.098713 5.310255 38,000 350 462 0
2020-09-25 03:29:46 GMT 43.093685 5.311628 38,000 350 462 0
2020-09-25 03:29:43 GMT 43.087784 5.313167 38,000 350 462 0
2020-09-25 03:29:39 GMT 43.078766 5.315530 38,000 350 462 0
2020-09-25 03:29:36 GMT 43.072041 5.317252 38,000 350 463 64
2020-09-25 03:29:33 GMT 43.064484 5.319235 38,000 350 463 128
2020-09-25 03:29:29 GMT 43.057327 5.321110 37,975 350 463 128
2020-09-25 03:29:25 GMT 43.051025 5.322748 37,975 350 464 0
2020-09-25 03:29:20 GMT 43.029072 5.328565 38,000 349 464 -64
2020-09-25 03:29:15 GMT 43.029072 5.328565 38,000 349 464 -64
2020-09-25 03:29:12 GMT 43.023605 5.330030 38,000 350 464 0
2020-09-25 03:29:09 GMT 43.014725 5.332329 38,000 350 465 0
2020-09-25 03:29:02 GMT 43.002304 5.335628 38,000 350 465 0
2020-09-25 03:28:59 GMT 42.994904 5.337567 38,000 350 465 0
2020-09-25 03:28:55 GMT 42.986477 5.339748 38,000 350 464 0
2020-09-25 03:28:52 GMT 42.980988 5.341208 38,000 350 464 0
2020-09-25 03:28:48 GMT 42.972977 5.343279 38,000 350 465 0
2020-09-25 03:28:45 GMT 42.965378 5.345296 38,000 350 465 0
2020-09-25 03:28:42 GMT 42.960068 5.346701 38,000 350 465 0
2020-09-25 03:28:39 GMT 42.952492 5.348642 38,000 350 465 0
2020-09-25 03:28:35 GMT 42.944252 5.350800 38,000 350 465 0
2020-09-25 03:28:32 GMT 42.938736 5.352258 38,000 350 465 0
2020-09-25 03:28:29 GMT 42.929031 5.354789 38,000 350 465 0
2020-09-25 03:28:24 GMT 42.921616 5.356729 38,000 350 466 0
2020-09-25 03:28:21 GMT 42.915298 5.358390 38,000 350 465 0
2020-09-25 03:28:18 GMT 42.906006 5.360817 38,000 350 465 0
2020-09-25 03:28:12 GMT 42.895420 5.363552 38,000 350 465 0
2020-09-25 03:28:08 GMT 42.888020 5.365448 38,000 350 465 0
2020-09-25 03:28:04 GMT 42.880196 5.367541 38,000 350 465 64
2020-09-25 03:28:01 GMT 42.873459 5.369249 38,000 350 465 0
2020-09-25 03:27:58 GMT 42.867115 5.370941 38,000 350 465 64
2020-09-25 03:27:55 GMT 42.857849 5.373400 38,000 350 465 64
2020-09-25 03:27:51 GMT 42.852127 5.374869 38,000 350 465 0
2020-09-25 03:27:48 GMT 42.845795 5.376500 38,000 350 465 0
2020-09-25 03:27:44 GMT 42.836720 5.378919 38,000 350 466 0
2020-09-25 03:27:41 GMT 42.831642 5.380227 38,000 350 466 -64
2020-09-25 03:27:38 GMT 42.824432 5.382087 38,000 350 466 -64
2020-09-25 03:27:35 GMT 42.816376 5.384195 38,000 350 467 -64
2020-09-25 03:27:31 GMT 42.809372 5.385983 38,000 350 467 -64
2020-09-25 03:27:27 GMT 42.801758 5.388027 38,025 350 467 -64
2020-09-25 03:27:21 GMT 42.787537 5.391665 38,000 350 467 0
2020-09-25 03:27:17 GMT 42.780121 5.393600 38,000 350 467 0
2020-09-25 03:27:14 GMT 42.770599 5.396097 38,000 350 467 0
2020-09-25 03:27:10 GMT 42.765911 5.397353 38,000 350 467 0
2020-09-25 03:27:07 GMT 42.758930 5.399142 38,000 350 467 0
2020-09-25 03:27:04 GMT 42.750870 5.401278 38,000 350 466 0
2020-09-25 03:27:01 GMT 42.745335 5.402718 38,000 350 466 0
2020-09-25 03:26:57 GMT 42.737934 5.404635 38,000 350 466 0
2020-09-25 03:26:53 GMT 42.723770 5.408332 38,000 350 466 0
2020-09-25 03:26:50 GMT 42.723770 5.408332 38,000 350 466 0
2020-09-25 03:26:47 GMT 42.716148 5.410319 38,000 350 466 0
2020-09-25 03:26:43 GMT 42.707443 5.412555 38,000 350 466 0
2020-09-25 03:26:40 GMT 42.701935 5.413950 38,000 350 466 0
2020-09-25 03:26:36 GMT 42.693893 5.416068 38,000 350 466 0
2020-09-25 03:26:33 GMT 42.680557 5.419506 38,000 350 466 -64
2020-09-25 03:26:26 GMT 42.672062 5.421689 38,025 350 467 -64
2020-09-25 03:26:20 GMT 42.659592 5.424936 38,025 350 467 0
2020-09-25 03:26:17 GMT 42.651306 5.427059 38,000 350 468 64
2020-09-25 03:26:10 GMT 42.637665 5.430554 38,000 350 470 -64
2020-09-25 03:26:05 GMT 42.625881 5.433633 38,000 350 471 0
2020-09-25 03:26:00 GMT 42.616245 5.436125 38,000 350 472 64
2020-09-25 03:25:56 GMT 42.607449 5.438360 38,000 350 473 64
2020-09-25 03:25:53 GMT 42.598846 5.440542 38,000 350 474 128
2020-09-25 03:25:49 GMT 42.593670 5.441873 37,975 350 474 64
2020-09-25 03:25:46 GMT 42.585709 5.443917 37,975 350 474 0
2020-09-25 03:25:42 GMT 42.577515 5.446035 37,975 350 474 0
2020-09-25 03:25:39 GMT 42.572159 5.447471 38,000 350 474 0
2020-09-25 03:25:36 GMT 42.563969 5.449538 38,000 350 473 0
2020-09-25 03:25:33 GMT 42.556427 5.451518 38,000 350 472 0
2020-09-25 03:25:30 GMT 42.551056 5.452902 38,000 350 471 0
2020-09-25 03:25:26 GMT 42.541214 5.455461 38,000 350 470 0
2020-09-25 03:25:22 GMT 42.533752 5.457396 38,000 350 469 64
2020-09-25 03:25:19 GMT 42.528633 5.458736 38,000 350 468 64
2020-09-25 03:25:15 GMT 42.519333 5.461141 38,000 350 467 64
2020-09-25 03:25:12 GMT 42.512108 5.463016 38,000 350 466 64
2020-09-25 03:25:09 GMT 42.507660 5.464200 38,000 350 466 0
2020-09-25 03:25:05 GMT 42.498329 5.466592 38,000 350 464 -64
2020-09-25 03:25:02 GMT 42.489483 5.468956 38,000 350 464 -64
2020-09-25 03:24:59 GMT 42.485870 5.469881 38,000 350 464 -64
2020-09-25 03:24:54 GMT 42.476212 5.472377 38,000 350 463 -64
2020-09-25 03:24:49 GMT 42.464630 5.475374 38,025 350 462 -64
2020-09-25 03:24:45 GMT 42.455643 5.477707 38,025 350 462 -64
2020-09-25 03:24:41 GMT 42.441349 5.481347 38,025 350 463 -64
2020-09-25 03:24:35 GMT 42.433319 5.483364 38,025 350 464 -64
2020-09-25 03:24:29 GMT 42.422150 5.486235 38,025 350 466 -128
2020-09-25 03:24:24 GMT 42.411789 5.488885 38,025 350 467 -192
2020-09-25 03:24:18 GMT 42.400085 5.491916 38,050 350 469 -384
2020-09-25 03:24:14 GMT 42.391117 5.494186 38,075 350 471 -768
2020-09-25 03:24:11 GMT 42.384090 5.495975 38,125 350 471 -960
2020-09-25 03:24:08 GMT 42.378937 5.497284 38,150 350 471 -960
2020-09-25 03:24:04 GMT 42.368866 5.499843 38,250 350 472 -1024
2020-09-25 03:24:01 GMT 42.362228 5.501529 38,300 350 472 -1024
2020-09-25 03:23:57 GMT 42.353645 5.503703 38,375 350 471 -1024
2020-09-25 03:23:53 GMT 42.346802 5.505492 38,425 350 470 -1024
2020-09-25 03:23:48 GMT 42.324875 5.511142 38,775 350 462 -1024
2020-09-25 03:23:44 GMT 42.324875 5.511142 38,625 350 467 -960
2020-09-25 03:23:41 GMT 42.318497 5.512773 38,675 350 466 -1024
2020-09-25 03:23:38 GMT 42.314255 5.513888 38,700 350 465 -1024
2020-09-25 03:23:33 GMT 42.303726 5.516572 38,800 350 464 -960
2020-09-25 03:23:30 GMT 42.296356 5.518508 38,850 350 462 -1024
2020-09-25 03:23:27 GMT 42.291321 5.519756 38,875 350 462 -1024
2020-09-25 03:23:23 GMT 42.282715 5.522003 38,950 350 461 -960
2020-09-25 03:23:18 GMT 42.271622 5.524846 39,050 350 460 -1024
2020-09-25 03:23:13 GMT 42.261200 5.527496 39,125 350 458 -1024
2020-09-25 03:23:08 GMT 42.250580 5.530180 39,200 350 459 -960
2020-09-25 03:23:02 GMT 42.239544 5.533021 39,300 350 458 -960
2020-09-25 03:22:57 GMT 42.228699 5.535832 39,375 350 458 -960
2020-09-25 03:22:53 GMT 42.218307 5.538545 39,425 350 459 -960
2020-09-25 03:22:47 GMT 42.207657 5.541261 39,500 350 461 -960
2020-09-25 03:22:42 GMT 42.197159 5.543913 39,600 350 462 -1024
2020-09-25 03:22:37 GMT 42.186676 5.546598 39,675 350 462 -1024
2020-09-25 03:22:32 GMT 42.175552 5.549469 39,775 350 462 -960
2020-09-25 03:22:27 GMT 42.165668 5.551992 39,850 350 462 -960
2020-09-25 03:22:22 GMT 42.154167 5.554930 39,950 350 461 0
2020-09-25 03:22:17 GMT 42.144333 5.557397 39,975 350 461 -320
2020-09-25 03:22:12 GMT 42.132381 5.560487 40,000 350 462 0
2020-09-25 03:22:07 GMT 42.123184 5.562827 40,000 350 461 0
2020-09-25 03:22:01 GMT 42.111008 5.565948 40,000 350 462 0
2020-09-25 03:21:57 GMT 42.101795 5.568280 40,000 350 462 0
2020-09-25 03:21:51 GMT 42.089645 5.571346 40,000 350 463 0
2020-09-25 03:21:46 GMT 42.080151 5.573773 40,000 350 462 0
2020-09-25 03:21:40 GMT 42.067955 5.576839 40,000 350 464 0
2020-09-25 03:21:36 GMT 42.059509 5.578932 40,000 350 464 0
2020-09-25 03:21:29 GMT 42.041374 5.583546 40,000 350 465 64
2020-09-25 03:21:26 GMT 42.036903 5.584696 40,000 350 465 0
2020-09-25 03:21:21 GMT 42.025265 5.587634 40,000 350 466 0
2020-09-25 03:21:16 GMT 42.016205 5.589981 40,000 350 466 0
2020-09-25 03:21:10 GMT 42.003712 5.593127 40,000 350 466 0
2020-09-25 03:21:06 GMT 41.994415 5.595537 40,000 350 466 0
2020-09-25 03:21:00 GMT 41.982147 5.598658 40,000 350 466 0
2020-09-25 03:20:56 GMT 41.973450 5.600843 40,000 350 466 0
2020-09-25 03:20:50 GMT 41.951614 5.606336 40,000 350 467 0
2020-09-25 03:20:45 GMT 41.951614 5.606336 40,000 350 467 0
2020-09-25 03:20:39 GMT 41.938679 5.609670 40,000 350 468 0
2020-09-25 03:20:35 GMT 41.930145 5.611829 40,000 350 468 0
2020-09-25 03:20:30 GMT 41.917171 5.615163 40,000 350 469 0
2020-09-25 03:20:25 GMT 41.908218 5.617384 40,000 350 469 0
2020-09-25 03:20:18 GMT 41.889660 5.622062 40,000 350 470 64
2020-09-25 03:20:15 GMT 41.887329 5.622637 40,000 350 470 0
2020-09-25 03:20:09 GMT 41.873199 5.626248 40,025 350 471 -64
2020-09-25 03:20:05 GMT 41.865692 5.628121 40,000 350 471 64
2020-09-25 03:19:57 GMT 41.846191 5.632990 40,000 350 472 0
2020-09-25 03:19:54 GMT 41.842361 5.634006 40,000 350 472 0
2020-09-25 03:19:48 GMT 41.821785 5.639180 40,000 350 473 64
2020-09-25 03:19:45 GMT 41.821785 5.639180 40,000 350 472 64
2020-09-25 03:19:39 GMT 41.807400 5.642821 40,000 350 473 0
2020-09-25 03:19:35 GMT 41.800095 5.644663 40,000 350 473 0
2020-09-25 03:19:28 GMT 41.785492 5.648346 40,000 350 473 64
2020-09-25 03:19:24 GMT 41.778168 5.650166 40,000 350 473 0
2020-09-25 03:19:18 GMT 41.763969 5.653743 40,000 350 473 64
2020-09-25 03:19:14 GMT 41.755371 5.655899 40,000 350 473 0
2020-09-25 03:19:08 GMT 41.742695 5.659045 40,000 350 473 0
2020-09-25 03:19:04 GMT 41.735199 5.660961 40,000 350 473 0
2020-09-25 03:18:57 GMT 41.719940 5.664825 40,000 350 473 -64
2020-09-25 03:18:54 GMT 41.713039 5.666582 40,000 350 473 -64
2020-09-25 03:18:48 GMT 41.698654 5.670194 40,000 350 473 0
2020-09-25 03:18:44 GMT 41.690689 5.672191 40,000 350 473 0
2020-09-25 03:18:37 GMT 41.675892 5.675971 40,000 350 472 0
2020-09-25 03:18:34 GMT 41.669655 5.677504 40,000 350 472 0
2020-09-25 03:18:27 GMT 41.654198 5.681401 40,000 350 473 0
2020-09-25 03:18:23 GMT 41.647339 5.683115 40,000 350 473 64
2020-09-25 03:18:17 GMT 41.633148 5.686673 40,000 350 473 0
2020-09-25 03:18:13 GMT 41.625195 5.688682 40,000 350 473 0
2020-09-25 03:18:06 GMT 41.610992 5.692166 40,000 350 474 64
2020-09-25 03:18:03 GMT 41.603439 5.694039 40,000 350 474 0
2020-09-25 03:17:57 GMT 41.588604 5.697816 40,000 350 475 0
2020-09-25 03:17:53 GMT 41.581696 5.699532 40,000 350 475 0
2020-09-25 03:17:46 GMT 41.567238 5.703118 40,000 350 475 0
2020-09-25 03:17:43 GMT 41.560730 5.704776 40,000 350 475 -64
2020-09-25 03:17:36 GMT 41.544342 5.708896 40,025 350 475 0
2020-09-25 03:17:33 GMT 41.537865 5.710527 40,000 350 475 0
2020-09-25 03:17:23 GMT 41.516006 5.715949 40,000 350 476 0
2020-09-25 03:17:13 GMT 41.494385 5.721322 40,000 350 476 0
2020-09-25 03:17:06 GMT 41.478149 5.725375 40,000 350 476 0
2020-09-25 03:17:02 GMT 41.472736 5.726751 40,000 350 476 0
2020-09-25 03:16:55 GMT 41.456070 5.730903 40,000 350 475 0
2020-09-25 03:16:52 GMT 41.450672 5.732244 40,000 350 475 0
2020-09-25 03:16:42 GMT 41.428482 5.737797 40,000 350 474 64
2020-09-25 03:16:32 GMT 41.406494 5.743231 40,000 350 473 0
2020-09-25 03:16:22 GMT 41.385639 5.748409 40,000 350 472 0
2020-09-25 03:16:15 GMT 41.368057 5.752808 40,000 350 472 0
2020-09-25 03:16:12 GMT 41.363800 5.753906 40,000 350 471 0
2020-09-25 03:16:04 GMT 41.346634 5.758179 40,000 350 471 -128
2020-09-25 03:16:01 GMT 41.340866 5.759644 40,025 350 471 -192
2020-09-25 03:15:52 GMT 41.320587 5.764648 40,050 350 468 -64
2020-09-25 03:15:41 GMT 41.298401 5.770132 40,000 350 470 128
2020-09-25 03:15:31 GMT 41.276230 5.775574 39,950 350 477 64
2020-09-25 03:15:24 GMT 41.258598 5.779932 39,975 350 479 -64
2020-09-25 03:15:21 GMT 41.254452 5.780931 40,000 350 479 0
2020-09-25 03:15:17 GMT 41.244919 5.783325 40,000 350 478 0
2020-09-25 03:15:11 GMT 41.232285 5.786438 40,000 350 477 0
2020-09-25 03:15:06 GMT 41.219284 5.789673 40,000 350 476 -64
2020-09-25 03:15:01 GMT 41.210648 5.791855 40,000 350 475 0
2020-09-25 03:14:55 GMT 41.198124 5.794914 40,000 350 471 0
2020-09-25 03:14:51 GMT 41.188908 5.797223 40,000 350 473 -64
2020-09-25 03:14:47 GMT 41.179642 5.799500 40,025 350 472 -64
2020-09-25 03:14:41 GMT 41.167633 5.802467 40,025 350 471 0
2020-09-25 03:14:37 GMT 41.157764 5.804901 40,025 350 471 64
2020-09-25 03:14:33 GMT 41.149433 5.806961 40,000 350 467 64
2020-09-25 03:14:30 GMT 41.144257 5.808228 40,000 350 471 64
2020-09-25 03:14:21 GMT 41.123016 5.813477 39,975 350 472 0
2020-09-25 03:14:15 GMT 41.111679 5.816262 39,975 350 472 0
2020-09-25 03:14:10 GMT 41.101158 5.818884 40,000 350 471 -64
2020-09-25 03:14:04 GMT 41.088089 5.822083 40,000 350 470 0
2020-09-25 03:14:00 GMT 41.078659 5.824402 40,000 350 469 -64
2020-09-25 03:13:55 GMT 41.069500 5.826624 40,000 350 467 0
2020-09-25 03:13:50 GMT 41.058655 5.829346 40,000 350 467 64
2020-09-25 03:13:45 GMT 41.047810 5.831992 40,000 350 466 -64
2020-09-25 03:13:40 GMT 41.035984 5.834864 40,000 350 465 64
2020-09-25 03:13:35 GMT 41.026859 5.837111 40,000 350 465 64
2020-09-25 03:13:29 GMT 41.015221 5.839982 40,000 350 464 0
2020-09-25 03:13:25 GMT 41.005920 5.842285 40,000 350 465 0
2020-09-25 03:13:20 GMT 40.996216 5.844666 40,000 350 464 0
2020-09-25 03:13:08 GMT 40.967274 5.851780 40,000 350 464 -64
2020-09-25 03:13:01 GMT 40.953354 5.855214 40,000 350 463 0
2020-09-25 03:12:58 GMT 40.948933 5.856275 40,000 350 463 64
2020-09-25 03:12:55 GMT 40.940048 5.858459 40,000 350 462 0
2020-09-25 03:12:48 GMT 40.928284 5.861328 40,000 350 461 0
2020-09-25 03:12:44 GMT 40.919266 5.863525 40,000 350 461 0
2020-09-25 03:12:39 GMT 40.908569 5.866137 40,000 350 460 -64
2020-09-25 03:12:33 GMT 40.887062 5.871443 40,000 350 458 64
2020-09-25 03:12:28 GMT 40.887062 5.871443 40,000 350 457 0
2020-09-25 03:12:23 GMT 40.876053 5.874146 40,000 350 457 0
2020-09-25 03:12:18 GMT 40.865845 5.876648 40,000 350 456 0
2020-09-25 03:12:14 GMT 40.856339 5.878996 40,000 350 455 0
2020-09-25 03:12:08 GMT 40.843491 5.882118 40,000 350 454 0
2020-09-25 03:11:58 GMT 40.823273 5.887085 40,000 350 453 0
2020-09-25 03:11:47 GMT 40.801220 5.892480 40,000 350 453 0
2020-09-25 03:11:44 GMT 40.793167 5.894415 40,000 350 452 0
2020-09-25 03:11:37 GMT 40.780838 5.897461 40,000 350 452 0
2020-09-25 03:11:32 GMT 40.769939 5.900158 40,000 350 452 0
2020-09-25 03:11:28 GMT 40.759644 5.902649 40,000 350 452 64
2020-09-25 03:11:21 GMT 40.747696 5.905518 40,000 350 452 0
2020-09-25 03:11:18 GMT 40.741543 5.907024 40,000 350 452 0
2020-09-25 03:11:07 GMT 40.719727 5.912354 40,000 350 451 0
2020-09-25 03:10:57 GMT 40.697548 5.917761 40,000 350 451 0
2020-09-25 03:10:47 GMT 40.676834 5.922817 40,000 350 451 0
2020-09-25 03:10:41 GMT 40.664543 5.925813 40,000 350 450 -64
2020-09-25 03:10:36 GMT 40.656143 5.927856 40,000 350 450 0
2020-09-25 03:10:27 GMT 40.634422 5.933117 40,000 350 450 0
2020-09-25 03:10:19 GMT 40.618835 5.936890 40,000 350 450 0
2020-09-25 03:10:16 GMT 40.614304 5.937988 40,000 350 450 0
2020-09-25 03:10:07 GMT 40.594849 5.942688 40,000 350 451 64
2020-09-25 03:09:56 GMT 40.572235 5.948120 40,000 350 451 0
2020-09-25 03:09:51 GMT 40.562210 5.950562 40,000 350 451 -64
2020-09-25 03:09:45 GMT 40.551086 5.953247 40,000 350 451 0
2020-09-25 03:09:41 GMT 40.542297 5.955383 40,000 350 450 0
2020-09-25 03:09:35 GMT 40.530613 5.958210 40,000 350 450 0
2020-09-25 03:09:30 GMT 40.519115 5.961019 40,000 350 450 0
2020-09-25 03:09:26 GMT 40.509945 5.963267 40,000 350 449 0
2020-09-25 03:09:20 GMT 40.498493 5.966013 40,000 350 449 0
2020-09-25 03:09:15 GMT 40.489059 5.968323 40,000 350 449 0
2020-09-25 03:09:10 GMT 40.476986 5.971257 40,000 350 449 0
2020-09-25 03:09:05 GMT 40.468231 5.973379 40,000 350 449 -64
2020-09-25 03:09:01 GMT 40.456779 5.976126 40,000 350 448 0
2020-09-25 03:08:55 GMT 40.448029 5.978248 40,000 350 448 0
2020-09-25 03:08:50 GMT 40.436783 5.980896 40,000 350 448 0
2020-09-25 03:08:44 GMT 40.426208 5.983398 40,000 350 448 0
2020-09-25 03:08:38 GMT 40.412930 5.986488 40,000 350 447 0
2020-09-25 03:08:34 GMT 40.405807 5.988235 40,000 350 447 64
2020-09-25 03:08:29 GMT 40.394440 5.990967 40,000 6 471 0
2020-09-25 03:08:24 GMT 40.385513 5.993103 40,000 350 446 0
2020-09-25 03:08:20 GMT 40.376106 5.995164 40,000 352 448 0
2020-09-25 03:08:14 GMT 40.364559 5.997287 40,000 354 451 0
2020-09-25 03:08:10 GMT 40.356461 5.998410 40,000 359 459 -64
2020-09-25 03:08:04 GMT 40.342682 5.999846 40,000 357 456 0
2020-09-25 03:07:59 GMT 40.320877 6.000732 40,000 359 459 -64
2020-09-25 03:07:53 GMT 40.320877 6.000732 40,000 0 461 0
2020-09-25 03:07:47 GMT 40.305450 6.000305 40,000 1 463 0
2020-09-25 03:07:44 GMT 40.300552 5.999971 40,000 3 466 0
2020-09-25 03:07:36 GMT 40.280273 5.997620 40,000 6 471 0
2020-09-25 03:07:27 GMT 40.260796 5.994540 40,000 6 470 0
2020-09-25 03:07:22 GMT 40.253254 5.993354 40,000 6 470 0
2020-09-25 03:07:17 GMT 40.243515 5.991821 40,000 6 470 0
2020-09-25 03:07:13 GMT 40.234028 5.990295 40,000 6 470 0
2020-09-25 03:07:07 GMT 40.221504 5.988360 40,000 6 470 0
2020-09-25 03:07:03 GMT 40.212433 5.987000 40,000 6 469 0
2020-09-25 03:06:56 GMT 40.198418 5.984927 40,000 6 469 0
2020-09-25 03:06:53 GMT 40.189804 5.983616 40,000 6 469 0
2020-09-25 03:06:47 GMT 40.177780 5.981750 40,000 6 469 64
2020-09-25 03:06:43 GMT 40.168488 5.980347 40,000 6 469 0
2020-09-25 03:06:35 GMT 40.153244 5.977966 40,000 6 469 0
2020-09-25 03:06:32 GMT 40.146332 5.976868 40,000 6 469 0
2020-09-25 03:06:27 GMT 40.134293 5.974976 40,000 6 469 -64
2020-09-25 03:06:22 GMT 40.124352 5.973441 40,000 6 469 -64
2020-09-25 03:06:17 GMT 40.111038 5.971319 40,000 6 468 -64
2020-09-25 03:06:12 GMT 40.102661 5.970032 40,025 6 468 0
2020-09-25 03:06:06 GMT 40.089718 5.968011 40,000 6 468 0
2020-09-25 03:06:02 GMT 40.080730 5.966575 40,000 6 468 -64
2020-09-25 03:05:56 GMT 40.066952 5.964390 40,000 6 468 0
2020-09-25 03:05:52 GMT 40.058990 5.963204 40,000 6 468 64
2020-09-25 03:05:45 GMT 40.044792 5.961019 40,000 6 469 64
2020-09-25 03:05:41 GMT 40.035736 5.959656 39,975 6 469 64
2020-09-25 03:05:36 GMT 40.022369 5.957642 39,975 6 469 64
2020-09-25 03:05:31 GMT 40.015278 5.956525 39,975 6 469 64
2020-09-25 03:05:25 GMT 40.001266 5.954340 40,000 6 469 0
2020-09-25 03:05:19 GMT 39.986435 5.952087 40,000 6 468 -64
2020-09-25 03:05:15 GMT 39.977371 5.950684 40,000 6 468 0
2020-09-25 03:05:12 GMT 39.971802 5.949783 40,025 6 468 -64
2020-09-25 03:05:05 GMT 39.957825 5.947571 40,025 7 468 0
2020-09-25 03:05:01 GMT 39.949688 5.946225 40,025 6 468 0
2020-09-25 03:04:55 GMT 39.933105 5.943604 40,000 6 468 0
2020-09-25 03:04:50 GMT 39.927109 5.942667 40,000 6 468 0
2020-09-25 03:04:44 GMT 39.912689 5.940499 40,000 6 469 64
2020-09-25 03:04:40 GMT 39.905136 5.939364 40,000 6 469 0
2020-09-25 03:04:33 GMT 39.889389 5.936976 40,000 6 469 -64
2020-09-25 03:04:28 GMT 39.880325 5.935669 40,000 6 469 0
2020-09-25 03:04:23 GMT 39.866730 5.933632 40,000 6 468 0
2020-09-25 03:04:19 GMT 39.858719 5.932498 40,000 6 468 0
2020-09-25 03:04:14 GMT 39.845810 5.930647 40,000 5 468 64
2020-09-25 03:04:11 GMT 39.840179 5.929930 40,000 5 468 64
2020-09-25 03:04:08 GMT 39.835869 5.929382 40,000 5 467 0
2020-09-25 03:04:03 GMT 39.821869 5.927841 40,000 2 463 0
2020-09-25 03:04:00 GMT 39.817154 5.927429 40,000 3 465 64
2020-09-25 03:03:57 GMT 39.812668 5.927064 39,975 3 464 64
2020-09-25 03:03:50 GMT 39.796810 5.926208 40,000 1 462 0
2020-09-25 03:03:47 GMT 39.790199 5.926025 40,000 0 461 0
2020-09-25 03:03:40 GMT 39.773998 5.925781 40,000 0 460 0
2020-09-25 03:03:36 GMT 39.767624 5.925691 40,000 0 460 0
2020-09-25 03:03:33 GMT 39.752956 5.925598 40,000 0 459 -64
2020-09-25 03:03:29 GMT 39.752956 5.925598 40,000 0 459 -64
2020-09-25 03:03:26 GMT 39.745743 5.925572 40,000 0 458 0
2020-09-25 03:03:22 GMT 39.736862 5.925691 40,000 351 444 -64
2020-09-25 03:03:19 GMT 39.731827 5.925810 40,000 359 455 0
2020-09-25 03:03:15 GMT 39.723404 5.926169 40,000 357 452 0
2020-09-25 03:03:10 GMT 39.711105 5.927307 40,000 355 449 0
2020-09-25 03:03:03 GMT 39.699329 5.928894 40,000 354 448 64
2020-09-25 03:02:59 GMT 39.689301 5.930707 40,000 351 445 0
2020-09-25 03:02:52 GMT 39.672421 5.934265 40,000 351 445 -64
2020-09-25 03:02:49 GMT 39.669617 5.934886 40,000 351 445 0
2020-09-25 03:02:44 GMT 39.659271 5.937095 40,000 351 445 -64
2020-09-25 03:02:39 GMT 39.648682 5.939331 40,000 351 445 0
2020-09-25 03:02:33 GMT 39.638351 5.941573 40,000 351 445 -64
2020-09-25 03:02:29 GMT 39.628189 5.943783 40,000 351 446 0
2020-09-25 03:02:23 GMT 39.616978 5.946167 40,000 351 446 0
2020-09-25 03:02:19 GMT 39.607635 5.948201 40,000 351 447 0
2020-09-25 03:02:12 GMT 39.594402 5.950989 40,000 351 446 0
2020-09-25 03:02:09 GMT 39.586441 5.952698 40,000 351 446 0
2020-09-25 03:02:01 GMT 39.572567 5.955627 40,000 351 447 64
2020-09-25 03:01:58 GMT 39.565613 5.957098 39,975 351 447 64
2020-09-25 03:01:51 GMT 39.552155 5.959964 39,975 351 447 0
2020-09-25 03:01:48 GMT 39.544823 5.961548 40,000 351 447 0
2020-09-25 03:01:38 GMT 39.524620 5.965881 40,000 351 447 0
2020-09-25 03:01:28 GMT 39.503860 5.970293 40,000 351 446 -64
2020-09-25 03:01:17 GMT 39.483093 5.974731 40,000 351 444 0
2020-09-25 03:01:08 GMT 39.462379 5.979126 40,000 351 444 0
2020-09-25 03:00:58 GMT 39.444130 5.982971 40,000 351 445 0
2020-09-25 03:00:55 GMT 39.438217 5.984253 40,000 351 445 0
2020-09-25 03:00:48 GMT 39.413177 5.989579 40,000 351 447 0
2020-09-25 03:00:35 GMT 39.396881 5.993042 40,000 351 447 0
2020-09-25 03:00:25 GMT 39.375595 5.997520 40,000 351 448 0
2020-09-25 03:00:15 GMT 39.355728 6.001700 40,000 351 449 0
2020-09-25 03:00:05 GMT 39.335243 6.006042 40,000 351 448 0
2020-09-25 02:59:57 GMT 39.318237 6.009701 40,000 351 448 0
2020-09-25 02:59:54 GMT 39.312698 6.010835 40,000 351 448 0
2020-09-25 02:59:46 GMT 39.296093 6.014343 40,000 351 448 0
2020-09-25 02:59:37 GMT 39.276215 6.018555 40,000 351 447 0
2020-09-25 02:59:34 GMT 39.271317 6.019552 40,000 351 447 0
2020-09-25 02:59:26 GMT 39.253731 6.023315 40,000 351 447 0
2020-09-25 02:59:23 GMT 39.249481 6.024210 40,000 351 447 0
2020-09-25 02:59:16 GMT 39.228642 6.028625 40,000 351 447 0
2020-09-25 02:59:13 GMT 39.228642 6.028625 40,000 351 447 0
2020-09-25 02:59:06 GMT 39.212769 6.031972 40,000 351 446 0
2020-09-25 02:59:02 GMT 39.207458 6.033106 40,000 351 446 -64
2020-09-25 02:58:55 GMT 39.192375 6.036255 40,000 351 446 0
2020-09-25 02:58:51 GMT 39.184662 6.037943 40,000 351 445 0
2020-09-25 02:58:45 GMT 39.171799 6.040649 40,000 351 445 0
2020-09-25 02:58:41 GMT 39.163887 6.042297 40,000 351 445 0
2020-09-25 02:58:35 GMT 39.150898 6.045044 40,000 351 444 64
2020-09-25 02:58:30 GMT 39.142147 6.046875 40,000 351 444 0
2020-09-25 02:58:24 GMT 39.129948 6.049438 40,000 351 444 0
2020-09-25 02:58:20 GMT 39.121216 6.051317 40,000 351 444 0
2020-09-25 02:58:15 GMT 39.108440 6.054016 40,000 351 444 64
2020-09-25 02:58:10 GMT 39.100708 6.055616 40,000 351 444 0
2020-09-25 02:58:04 GMT 39.087708 6.058363 40,000 351 444 0
2020-09-25 02:57:59 GMT 39.079624 6.060059 40,000 351 444 0
2020-09-25 02:57:54 GMT 39.066639 6.062805 40,000 351 444 0
2020-09-25 02:57:49 GMT 39.057724 6.064692 40,000 351 444 0
2020-09-25 02:57:44 GMT 39.047783 6.066772 40,000 351 444 0
2020-09-25 02:57:38 GMT 39.036621 6.069110 40,000 351 444 -64
2020-09-25 02:57:34 GMT 39.027054 6.071081 40,000 351 444 0
2020-09-25 02:57:27 GMT 39.014687 6.073730 40,000 351 443 0
2020-09-25 02:57:24 GMT 39.006817 6.075378 40,000 351 444 0
2020-09-25 02:57:20 GMT 38.997879 6.077209 40,000 351 444 0
2020-09-25 02:57:17 GMT 38.994621 6.077942 40,000 351 444 0
2020-09-25 02:57:13 GMT 38.985489 6.079798 40,000 351 444 0
2020-09-25 02:57:07 GMT 38.972717 6.082485 40,000 351 444 64
2020-09-25 02:57:03 GMT 38.965393 6.083978 40,000 351 444 0
2020-09-25 02:56:57 GMT 38.952400 6.086670 40,000 351 445 0
2020-09-25 02:56:53 GMT 38.944473 6.088336 40,000 351 445 0
2020-09-25 02:56:46 GMT 38.931061 6.091202 40,000 351 445 -64
2020-09-25 02:56:43 GMT 38.924561 6.092529 40,000 351 444 -64
2020-09-25 02:56:33 GMT 38.903824 6.096934 40,000 351 445 0
2020-09-25 02:56:23 GMT 38.882675 6.101353 40,000 351 445 0
2020-09-25 02:56:12 GMT 38.861481 6.105774 40,000 351 446 0
2020-09-25 02:56:03 GMT 38.841885 6.109802 40,000 351 446 -64
2020-09-25 02:55:53 GMT 38.822937 6.113831 40,000 351 447 0
2020-09-25 02:55:49 GMT 38.814369 6.115601 40,000 351 447 0
2020-09-25 02:55:42 GMT 38.798996 6.118668 40,000 353 449 0
2020-09-25 02:55:31 GMT 38.777756 6.122072 40,000 354 450 0
2020-09-25 02:55:21 GMT 38.756012 6.125356 40,000 354 451 0
2020-09-25 02:55:10 GMT 38.733673 6.128699 40,000 354 450 0
2020-09-25 02:55:01 GMT 38.715679 6.131348 40,000 354 450 0
2020-09-25 02:54:57 GMT 38.707024 6.132690 40,000 354 450 0
2020-09-25 02:54:52 GMT 38.694637 6.134521 40,000 354 449 0
2020-09-25 02:54:48 GMT 38.689659 6.135315 40,000 354 449 0
2020-09-25 02:54:41 GMT 38.673386 6.137715 40,000 354 449 64
2020-09-25 02:54:38 GMT 38.667801 6.138551 40,000 354 448 0
2020-09-25 02:54:31 GMT 38.653381 6.140701 40,000 354 448 0
2020-09-25 02:54:27 GMT 38.645142 6.141955 40,000 354 448 0
2020-09-25 02:54:20 GMT 38.631546 6.143985 40,000 354 448 -64
2020-09-25 02:54:14 GMT 38.618385 6.145996 40,000 354 448 0
2020-09-25 02:54:10 GMT 38.610764 6.147149 40,000 354 448 0
2020-09-25 02:54:04 GMT 38.598450 6.149000 40,000 354 448 0
2020-09-25 02:54:00 GMT 38.589386 6.150373 40,000 354 448 64
2020-09-25 02:53:54 GMT 38.577072 6.152224 40,000 354 448 64
2020-09-25 02:53:50 GMT 38.567364 6.153625 40,000 354 449 0
2020-09-25 02:53:43 GMT 38.554146 6.155640 40,000 354 450 0
2020-09-25 02:53:40 GMT 38.547955 6.156555 40,000 354 450 0
2020-09-25 02:53:30 GMT 38.526627 6.159748 40,000 354 451 0
2020-09-25 02:53:20 GMT 38.506290 6.162720 40,000 354 452 0
2020-09-25 02:53:09 GMT 38.484055 6.166017 40,000 354 453 -64
2020-09-25 02:52:58 GMT 38.461807 6.169420 40,025 354 453 0
2020-09-25 02:52:48 GMT 38.439743 6.172645 40,000 354 452 0
2020-09-25 02:52:37 GMT 38.418274 6.175809 40,000 354 454 64
2020-09-25 02:52:27 GMT 38.395679 6.179153 40,000 354 455 -64
2020-09-25 02:52:16 GMT 38.374081 6.182317 40,000 354 457 -64
2020-09-25 02:52:06 GMT 38.352036 6.185595 40,000 354 458 64
2020-09-25 02:51:55 GMT 38.329056 6.189043 40,000 354 459 0
2020-09-25 02:51:45 GMT 38.307510 6.192229 40,000 354 460 0
2020-09-25 02:51:34 GMT 38.284698 6.195573 40,000 354 460 0
2020-09-25 02:51:27 GMT 38.270966 6.197633 40,000 354 460 0
2020-09-25 02:51:23 GMT 38.262268 6.198919 40,000 354 460 0
2020-09-25 02:51:17 GMT 38.249413 6.200827 40,000 354 460 0
2020-09-25 02:51:12 GMT 38.239033 6.202379 40,000 354 460 64
2020-09-25 02:51:08 GMT 38.228886 6.203872 40,000 354 460 64
2020-09-25 02:50:57 GMT 38.207146 6.207096 40,000 354 460 0
2020-09-25 02:50:51 GMT 38.194016 6.209007 40,000 354 460 0
2020-09-25 02:50:47 GMT 38.185776 6.210261 40,000 354 459 0
2020-09-25 02:50:38 GMT 38.164036 6.213485 40,000 354 460 0
2020-09-25 02:50:30 GMT 38.149704 6.215574 40,000 354 460 0
2020-09-25 02:50:27 GMT 38.142746 6.216625 40,000 354 460 0
2020-09-25 02:50:17 GMT 38.121780 6.219664 40,000 354 460 0
2020-09-25 02:50:09 GMT 38.104683 6.222202 40,000 354 461 0
2020-09-25 02:50:06 GMT 38.099167 6.223054 40,000 354 461 0
2020-09-25 02:49:56 GMT 38.078613 6.226034 40,000 354 462 0
2020-09-25 02:49:46 GMT 38.057602 6.229131 40,000 354 462 0
2020-09-25 02:49:37 GMT 38.035950 6.232345 40,000 354 462 -64
2020-09-25 02:49:26 GMT 38.014069 6.235559 40,000 354 462 -64
2020-09-25 02:49:15 GMT 37.991135 6.238949 40,000 354 462 64
2020-09-25 02:49:05 GMT 37.969028 6.242145 40,000 354 463 0
2020-09-25 02:48:41 GMT 37.918659 6.249489 40,000 354 462 0
2020-09-25 02:48:36 GMT 37.901855 6.251997 40,000 354 462 0
2020-09-25 02:48:23 GMT 37.880905 6.255042 40,000 354 461 0
2020-09-25 02:48:13 GMT 37.858429 6.258350 40,000 354 461 0
2020-09-25 02:48:02 GMT 37.835564 6.261729 40,000 354 461 0
2020-09-25 02:47:50 GMT 37.809727 6.265491 40,000 354 461 -64
2020-09-25 02:47:41 GMT 37.790874 6.268238 40,000 354 461 64
2020-09-25 02:47:31 GMT 37.769531 6.271382 40,000 354 461 0
2020-09-25 02:47:20 GMT 37.747253 6.274626 40,000 354 462 0
2020-09-25 02:47:10 GMT 37.725403 6.277810 40,000 354 462 0
2020-09-25 02:46:59 GMT 37.701633 6.281254 40,000 354 463 0
2020-09-25 02:46:52 GMT 37.687157 6.283344 40,000 354 463 0
2020-09-25 02:46:49 GMT 37.680771 6.284297 40,000 354 463 0
2020-09-25 02:46:37 GMT 37.656509 6.287803 40,000 354 464 0
2020-09-25 02:46:28 GMT 37.636040 6.290807 40,000 354 464 64
2020-09-25 02:46:18 GMT 37.614071 6.293972 40,000 354 464 0
2020-09-25 02:46:07 GMT 37.591919 6.297211 40,000 354 463 0
2020-09-25 02:45:55 GMT 37.565376 6.301077 40,000 354 461 0
2020-09-25 02:45:45 GMT 37.544891 6.304063 40,000 354 460 64
2020-09-25 02:45:35 GMT 37.523392 6.307204 40,000 354 458 0
2020-09-25 02:45:25 GMT 37.502995 6.310153 40,000 354 457 -64
2020-09-25 02:45:13 GMT 37.478210 6.313749 40,000 354 457 -64
2020-09-25 02:45:04 GMT 37.458664 6.316613 40,000 354 456 -64
2020-09-25 02:44:51 GMT 37.430740 6.320587 40,000 354 456 -64
2020-09-25 02:44:41 GMT 37.411652 6.323333 40,000 354 456 0
2020-09-25 02:42:15 GMT 37.103203 6.367831 40,000 354 456 -64
2020-09-25 02:42:05 GMT 37.081970 6.370843 40,000 354 457 0

Making use of Plane Finder data

You are free to use the raw flight data, aircraft information and images provided in this report for your own purposes provided the data is correctly attributed to Plane Finder. We ask that you please credit Plane Finder and link to planefinder.net in close proximity to the content.

Optionally one of the following logos (no smaller then 150x24px) can be used and must link to planefinder.net

Embedding the Plane Finder map

You are welcome to embed the Plane Finder playback map on your website to offer visitors a more interactive experience. We suggest using the following HTML code:

<iframe src="//planefinder.net/data/report/AF929-F-GZCG-7700-squawk-2020-09-25/map" width="800" height="600" seamless="seamless"></iframe>

Where our data comes from

Plane Finder has a global network of data feeds and antenna radars that receive data broadcast directly from aircraft. The primary technologies used are ADS-B and MLAT. We also show feeds from the FAA and a FLARM glider feed.

Click here to find out more about the Plane Finder network.

How we collect our data